<?xml version="1.0" encoding="UTF-8" standalone="no" ?>
<gpx xmlns="http://www.topografix.com/GPX/1/1" xmlns:xsi="http://www.w3.org/2001/XMLSchema-instance" xsi:schemaLocation="http://www.topografix.com/GPX/1/1 http://www.topografix.com/GPX/1/1/gpx.xsd" version="1.1" creator="VisuGPX - https://www.visugpx.com">
  <metadata>
    <name>TUEDA</name>
    <desc><![CDATA[Pieton avec Isabelle]]></desc>
  </metadata>
  <trk>
    <name><![CDATA[Tueda]]></name>
    <trkseg>
      <trkpt lat="45.36994" lon="6.58323">
        <ele>1740.163387</ele>
        <time>2011-03-01T08:37:24Z</time>
      </trkpt>
      <trkpt lat="45.36991" lon="6.58324">
        <ele>1742.323848</ele>
        <time>2011-03-01T08:37:29Z</time>
      </trkpt>
      <trkpt lat="45.36989" lon="6.58326">
        <ele>1742.457407</ele>
        <time>2011-03-01T08:37:34Z</time>
      </trkpt>
      <trkpt lat="45.36986" lon="6.58327">
        <ele>1742.510426</ele>
        <time>2011-03-01T08:37:40Z</time>
      </trkpt>
      <trkpt lat="45.36979" lon="6.58332">
        <ele>1740.642586</ele>
        <time>2011-03-01T08:37:45Z</time>
      </trkpt>
      <trkpt lat="45.36973" lon="6.58333">
        <ele>1746.386841</ele>
        <time>2011-03-01T08:37:53Z</time>
      </trkpt>
      <trkpt lat="45.36962" lon="6.58339">
        <ele>1748.867494</ele>
        <time>2011-03-01T08:37:58Z</time>
      </trkpt>
      <trkpt lat="45.36958" lon="6.58344">
        <ele>1747.027202</ele>
        <time>2011-03-01T08:38:03Z</time>
      </trkpt>
      <trkpt lat="45.36952" lon="6.58347">
        <ele>1748.623372</ele>
        <time>2011-03-01T08:38:08Z</time>
      </trkpt>
      <trkpt lat="45.36947" lon="6.58351">
        <ele>1749.602195</ele>
        <time>2011-03-01T08:38:13Z</time>
      </trkpt>
      <trkpt lat="45.36944" lon="6.58355">
        <ele>1749.104678</ele>
        <time>2011-03-01T08:38:18Z</time>
      </trkpt>
      <trkpt lat="45.36941" lon="6.58354">
        <ele>1751.184626</ele>
        <time>2011-03-01T08:38:25Z</time>
      </trkpt>
      <trkpt lat="45.36931" lon="6.58364">
        <ele>1749.611554</ele>
        <time>2011-03-01T08:38:30Z</time>
      </trkpt>
      <trkpt lat="45.36926" lon="6.58367">
        <ele>1752.617308</ele>
        <time>2011-03-01T08:38:43Z</time>
      </trkpt>
      <trkpt lat="45.36919" lon="6.58371">
        <ele>1750.051668</ele>
        <time>2011-03-01T08:38:48Z</time>
      </trkpt>
      <trkpt lat="45.36915" lon="6.5837">
        <ele>1754.239084</ele>
        <time>2011-03-01T08:38:53Z</time>
      </trkpt>
      <trkpt lat="45.36901" lon="6.5839">
        <ele>1750.450156</ele>
        <time>2011-03-01T08:38:58Z</time>
      </trkpt>
      <trkpt lat="45.36895" lon="6.584">
        <ele>1746.810958</ele>
        <time>2011-03-01T08:39:03Z</time>
      </trkpt>
      <trkpt lat="45.36893" lon="6.58402">
        <ele>1747.656229</ele>
        <time>2011-03-01T08:39:08Z</time>
      </trkpt>
      <trkpt lat="45.36885" lon="6.58407">
        <ele>1749.386113</ele>
        <time>2011-03-01T08:39:13Z</time>
      </trkpt>
      <trkpt lat="45.36882" lon="6.58408">
        <ele>1749.439192</ele>
        <time>2011-03-01T08:39:18Z</time>
      </trkpt>
      <trkpt lat="45.36879" lon="6.5841">
        <ele>1750.270733</ele>
        <time>2011-03-01T08:39:23Z</time>
      </trkpt>
      <trkpt lat="45.36876" lon="6.58415">
        <ele>1749.853836</ele>
        <time>2011-03-01T08:39:30Z</time>
      </trkpt>
      <trkpt lat="45.36867" lon="6.58429">
        <ele>1743.60979</ele>
        <time>2011-03-01T08:39:35Z</time>
      </trkpt>
      <trkpt lat="45.36862" lon="6.58433">
        <ele>1745.286635</ele>
        <time>2011-03-01T08:39:40Z</time>
      </trkpt>
      <trkpt lat="45.36851" lon="6.58443">
        <ele>1741.592598</ele>
        <time>2011-03-01T08:39:45Z</time>
      </trkpt>
      <trkpt lat="45.36841" lon="6.58447">
        <ele>1737.576353</ele>
        <time>2011-03-01T08:39:50Z</time>
      </trkpt>
      <trkpt lat="45.36832" lon="6.5845">
        <ele>1738.433584</ele>
        <time>2011-03-01T08:39:55Z</time>
      </trkpt>
      <trkpt lat="45.36823" lon="6.58455">
        <ele>1740.149863</ele>
        <time>2011-03-01T08:40:00Z</time>
      </trkpt>
      <trkpt lat="45.36814" lon="6.58457">
        <ele>1741.705038</ele>
        <time>2011-03-01T08:40:05Z</time>
      </trkpt>
      <trkpt lat="45.36807" lon="6.58459">
        <ele>1741.797558</ele>
        <time>2011-03-01T08:40:10Z</time>
      </trkpt>
      <trkpt lat="45.368" lon="6.5846">
        <ele>1742.507441</ele>
        <time>2011-03-01T08:40:15Z</time>
      </trkpt>
      <trkpt lat="45.36794" lon="6.58463">
        <ele>1742.680541</ele>
        <time>2011-03-01T08:40:20Z</time>
      </trkpt>
      <trkpt lat="45.36787" lon="6.58466">
        <ele>1742.853649</ele>
        <time>2011-03-01T08:40:25Z</time>
      </trkpt>
      <trkpt lat="45.36781" lon="6.5847">
        <ele>1741.697781</ele>
        <time>2011-03-01T08:40:30Z</time>
      </trkpt>
      <trkpt lat="45.36775" lon="6.58473">
        <ele>1742.582539</ele>
        <time>2011-03-01T08:40:35Z</time>
      </trkpt>
      <trkpt lat="45.36767" lon="6.58476">
        <ele>1743.453595</ele>
        <time>2011-03-01T08:40:40Z</time>
      </trkpt>
      <trkpt lat="45.36762" lon="6.58479">
        <ele>1744.33837</ele>
        <time>2011-03-01T08:40:45Z</time>
      </trkpt>
      <trkpt lat="45.36755" lon="6.58479">
        <ele>1744.269831</ele>
        <time>2011-03-01T08:40:50Z</time>
      </trkpt>
      <trkpt lat="45.36748" lon="6.58478">
        <ele>1743.489672</ele>
        <time>2011-03-01T08:40:55Z</time>
      </trkpt>
      <trkpt lat="45.36742" lon="6.58478">
        <ele>1744.911263</ele>
        <time>2011-03-01T08:41:00Z</time>
      </trkpt>
      <trkpt lat="45.36736" lon="6.58479">
        <ele>1745.634938</ele>
        <time>2011-03-01T08:41:05Z</time>
      </trkpt>
      <trkpt lat="45.3673" lon="6.58479">
        <ele>1747.056544</ele>
        <time>2011-03-01T08:41:10Z</time>
      </trkpt>
      <trkpt lat="45.36724" lon="6.58482">
        <ele>1747.243439</ele>
        <time>2011-03-01T08:41:15Z</time>
      </trkpt>
      <trkpt lat="45.36719" lon="6.58489">
        <ele>1747.672038</ele>
        <time>2011-03-01T08:41:20Z</time>
      </trkpt>
      <trkpt lat="45.36714" lon="6.58494">
        <ele>1747.241588</ele>
        <time>2011-03-01T08:41:25Z</time>
      </trkpt>
      <trkpt lat="45.3671" lon="6.58499">
        <ele>1746.113217</ele>
        <time>2011-03-01T08:41:30Z</time>
      </trkpt>
      <trkpt lat="45.36706" lon="6.58505">
        <ele>1745.06542</ele>
        <time>2011-03-01T08:41:35Z</time>
      </trkpt>
      <trkpt lat="45.36702" lon="6.5851">
        <ele>1746.058232</ele>
        <time>2011-03-01T08:41:40Z</time>
      </trkpt>
      <trkpt lat="45.36696" lon="6.58515">
        <ele>1746.39261</ele>
        <time>2011-03-01T08:41:45Z</time>
      </trkpt>
      <trkpt lat="45.3669" lon="6.58521">
        <ele>1747.43862</ele>
        <time>2011-03-01T08:41:50Z</time>
      </trkpt>
      <trkpt lat="45.36685" lon="6.58527">
        <ele>1747.088782</ele>
        <time>2011-03-01T08:41:55Z</time>
      </trkpt>
      <trkpt lat="45.36681" lon="6.58532">
        <ele>1748.860119</ele>
        <time>2011-03-01T08:42:00Z</time>
      </trkpt>
      <trkpt lat="45.36675" lon="6.58537">
        <ele>1747.718104</ele>
        <time>2011-03-01T08:42:05Z</time>
      </trkpt>
      <trkpt lat="45.36671" lon="6.58542">
        <ele>1749.408881</ele>
        <time>2011-03-01T08:42:10Z</time>
      </trkpt>
      <trkpt lat="45.36666" lon="6.58545">
        <ele>1751.005404</ele>
        <time>2011-03-01T08:42:15Z</time>
      </trkpt>
      <trkpt lat="45.36661" lon="6.58545">
        <ele>1753.850333</ele>
        <time>2011-03-01T08:42:20Z</time>
      </trkpt>
      <trkpt lat="45.36654" lon="6.58545">
        <ele>1756.681584</ele>
        <time>2011-03-01T08:42:25Z</time>
      </trkpt>
      <trkpt lat="45.36649" lon="6.58546">
        <ele>1759.526525</ele>
        <time>2011-03-01T08:42:30Z</time>
      </trkpt>
      <trkpt lat="45.36643" lon="6.58545">
        <ele>1760.169734</ele>
        <time>2011-03-01T08:42:35Z</time>
      </trkpt>
      <trkpt lat="45.36638" lon="6.58547">
        <ele>1761.685712</ele>
        <time>2011-03-01T08:42:40Z</time>
      </trkpt>
      <trkpt lat="45.36634" lon="6.58546">
        <ele>1762.34261</ele>
        <time>2011-03-01T08:42:45Z</time>
      </trkpt>
      <trkpt lat="45.36631" lon="6.58546">
        <ele>1760.905706</ele>
        <time>2011-03-01T08:42:52Z</time>
      </trkpt>
      <trkpt lat="45.36627" lon="6.58544">
        <ele>1761.482037</ele>
        <time>2011-03-01T08:42:57Z</time>
      </trkpt>
      <trkpt lat="45.36624" lon="6.58543">
        <ele>1761.37411</ele>
        <time>2011-03-01T08:43:11Z</time>
      </trkpt>
      <trkpt lat="45.36621" lon="6.58542">
        <ele>1759.923536</ele>
        <time>2011-03-01T08:43:16Z</time>
      </trkpt>
      <trkpt lat="45.36618" lon="6.58541">
        <ele>1759.815612</ele>
        <time>2011-03-01T08:43:21Z</time>
      </trkpt>
      <trkpt lat="45.36615" lon="6.58541">
        <ele>1757.667105</ele>
        <time>2011-03-01T08:43:26Z</time>
      </trkpt>
      <trkpt lat="45.36611" lon="6.5854">
        <ele>1759.035634</ele>
        <time>2011-03-01T08:43:33Z</time>
      </trkpt>
      <trkpt lat="45.36606" lon="6.58541">
        <ele>1757.651972</ele>
        <time>2011-03-01T08:43:38Z</time>
      </trkpt>
      <trkpt lat="45.36593" lon="6.58536">
        <ele>1764.401871</ele>
        <time>2011-03-01T08:43:43Z</time>
      </trkpt>
      <trkpt lat="45.36578" lon="6.58536">
        <ele>1761.499353</ele>
        <time>2011-03-01T08:43:48Z</time>
      </trkpt>
      <trkpt lat="45.36566" lon="6.58536">
        <ele>1757.926257</ele>
        <time>2011-03-01T08:43:53Z</time>
      </trkpt>
      <trkpt lat="45.36556" lon="6.58538">
        <ele>1755.870631</ele>
        <time>2011-03-01T08:43:58Z</time>
      </trkpt>
      <trkpt lat="45.36548" lon="6.58537">
        <ele>1757.896177</ele>
        <time>2011-03-01T08:44:03Z</time>
      </trkpt>
      <trkpt lat="45.3654" lon="6.58537">
        <ele>1759.304365</ele>
        <time>2011-03-01T08:44:08Z</time>
      </trkpt>
      <trkpt lat="45.36533" lon="6.58537">
        <ele>1762.122112</ele>
        <time>2011-03-01T08:44:13Z</time>
      </trkpt>
      <trkpt lat="45.36525" lon="6.58538">
        <ele>1765.020446</ele>
        <time>2011-03-01T08:44:18Z</time>
      </trkpt>
      <trkpt lat="45.36519" lon="6.58537">
        <ele>1766.361742</ele>
        <time>2011-03-01T08:44:23Z</time>
      </trkpt>
      <trkpt lat="45.3651" lon="6.58536">
        <ele>1770.494848</ele>
        <time>2011-03-01T08:44:28Z</time>
      </trkpt>
      <trkpt lat="45.36503" lon="6.58535">
        <ele>1773.245712</ele>
        <time>2011-03-01T08:44:33Z</time>
      </trkpt>
      <trkpt lat="45.36497" lon="6.58534">
        <ele>1773.177486</ele>
        <time>2011-03-01T08:44:38Z</time>
      </trkpt>
      <trkpt lat="45.36491" lon="6.58536">
        <ele>1772.572465</ele>
        <time>2011-03-01T08:44:43Z</time>
      </trkpt>
      <trkpt lat="45.36485" lon="6.58538">
        <ele>1771.967451</ele>
        <time>2011-03-01T08:44:48Z</time>
      </trkpt>
      <trkpt lat="45.36478" lon="6.5854">
        <ele>1772.046759</ele>
        <time>2011-03-01T08:44:53Z</time>
      </trkpt>
      <trkpt lat="45.36472" lon="6.58543">
        <ele>1772.233931</ele>
        <time>2011-03-01T08:44:58Z</time>
      </trkpt>
      <trkpt lat="45.36469" lon="6.58546">
        <ele>1767.427568</ele>
        <time>2011-03-01T08:45:03Z</time>
      </trkpt>
      <trkpt lat="45.36466" lon="6.58548">
        <ele>1761.923252</ele>
        <time>2011-03-01T08:45:08Z</time>
      </trkpt>
      <trkpt lat="45.36461" lon="6.58551">
        <ele>1760.620312</ele>
        <time>2011-03-01T08:45:13Z</time>
      </trkpt>
      <trkpt lat="45.36455" lon="6.58553">
        <ele>1758.605787</ele>
        <time>2011-03-01T08:45:18Z</time>
      </trkpt>
      <trkpt lat="45.36451" lon="6.58555">
        <ele>1758.01445</ele>
        <time>2011-03-01T08:45:23Z</time>
      </trkpt>
      <trkpt lat="45.36445" lon="6.58555">
        <ele>1758.738455</ele>
        <time>2011-03-01T08:45:28Z</time>
      </trkpt>
      <trkpt lat="45.36439" lon="6.58554">
        <ele>1762.200987</ele>
        <time>2011-03-01T08:45:33Z</time>
      </trkpt>
      <trkpt lat="45.36434" lon="6.5855">
        <ele>1764.012242</ele>
        <time>2011-03-01T08:45:38Z</time>
      </trkpt>
      <trkpt lat="45.36428" lon="6.58546">
        <ele>1765.904083</ele>
        <time>2011-03-01T08:45:43Z</time>
      </trkpt>
      <trkpt lat="45.36422" lon="6.58544">
        <ele>1767.16492</ele>
        <time>2011-03-01T08:45:48Z</time>
      </trkpt>
      <trkpt lat="45.36416" lon="6.58543">
        <ele>1768.506343</ele>
        <time>2011-03-01T08:45:53Z</time>
      </trkpt>
      <trkpt lat="45.36411" lon="6.58543">
        <ele>1769.163434</ele>
        <time>2011-03-01T08:45:58Z</time>
      </trkpt>
      <trkpt lat="45.36407" lon="6.58537">
        <ele>1769.498221</ele>
        <time>2011-03-01T08:46:03Z</time>
      </trkpt>
      <trkpt lat="45.36401" lon="6.58536">
        <ele>1770.839663</ele>
        <time>2011-03-01T08:46:08Z</time>
      </trkpt>
      <trkpt lat="45.36394" lon="6.58531">
        <ele>1772.637348</ele>
        <time>2011-03-01T08:46:13Z</time>
      </trkpt>
      <trkpt lat="45.36388" lon="6.58525">
        <ele>1773.656504</ele>
        <time>2011-03-01T08:46:18Z</time>
      </trkpt>
      <trkpt lat="45.36382" lon="6.58521">
        <ele>1773.346695</ele>
        <time>2011-03-01T08:46:23Z</time>
      </trkpt>
      <trkpt lat="45.36376" lon="6.58519">
        <ele>1773.909627</ele>
        <time>2011-03-01T08:46:28Z</time>
      </trkpt>
      <trkpt lat="45.36372" lon="6.58515">
        <ele>1771.505931</ele>
        <time>2011-03-01T08:46:33Z</time>
      </trkpt>
      <trkpt lat="45.36366" lon="6.58513">
        <ele>1769.947745</ele>
        <time>2011-03-01T08:46:38Z</time>
      </trkpt>
      <trkpt lat="45.3636" lon="6.5851">
        <ele>1773.329795</ele>
        <time>2011-03-01T08:46:43Z</time>
      </trkpt>
      <trkpt lat="45.36353" lon="6.58508">
        <ele>1775.288693</ele>
        <time>2011-03-01T08:46:48Z</time>
      </trkpt>
      <trkpt lat="45.36346" lon="6.58502">
        <ele>1779.113402</ele>
        <time>2011-03-01T08:46:53Z</time>
      </trkpt>
      <trkpt lat="45.36338" lon="6.58499">
        <ele>1782.468265</ele>
        <time>2011-03-01T08:46:58Z</time>
      </trkpt>
      <trkpt lat="45.36331" lon="6.58498">
        <ele>1781.68867</ele>
        <time>2011-03-01T08:47:03Z</time>
      </trkpt>
      <trkpt lat="45.36323" lon="6.58501">
        <ele>1777.539556</ele>
        <time>2011-03-01T08:47:08Z</time>
      </trkpt>
      <trkpt lat="45.36318" lon="6.58501">
        <ele>1770.437407</ele>
        <time>2011-03-01T08:47:13Z</time>
      </trkpt>
      <trkpt lat="45.36314" lon="6.58508">
        <ele>1765.241854</ele>
        <time>2011-03-01T08:47:18Z</time>
      </trkpt>
      <trkpt lat="45.36314" lon="6.58521">
        <ele>1764.651655</ele>
        <time>2011-03-01T08:47:23Z</time>
      </trkpt>
      <trkpt lat="45.3632" lon="6.58536">
        <ele>1763.498477</ele>
        <time>2011-03-01T08:47:28Z</time>
      </trkpt>
      <trkpt lat="45.36321" lon="6.58543">
        <ele>1765.324517</ele>
        <time>2011-03-01T08:47:33Z</time>
      </trkpt>
      <trkpt lat="45.36324" lon="6.58544">
        <ele>1759.015551</ele>
        <time>2011-03-01T08:47:38Z</time>
      </trkpt>
      <trkpt lat="45.36329" lon="6.58546">
        <ele>1757.740992</ele>
        <time>2011-03-01T08:47:43Z</time>
      </trkpt>
      <trkpt lat="45.36331" lon="6.58549">
        <ele>1757.21778</ele>
        <time>2011-03-01T08:47:55Z</time>
      </trkpt>
      <trkpt lat="45.36332" lon="6.58552">
        <ele>1758.171094</ele>
        <time>2011-03-01T08:48:06Z</time>
      </trkpt>
      <trkpt lat="45.36335" lon="6.58558">
        <ele>1758.534226</ele>
        <time>2011-03-01T08:48:11Z</time>
      </trkpt>
      <trkpt lat="45.36336" lon="6.58566">
        <ele>1759.031315</ele>
        <time>2011-03-01T08:48:22Z</time>
      </trkpt>
      <trkpt lat="45.36336" lon="6.58576">
        <ele>1760.387545</ele>
        <time>2011-03-01T08:48:27Z</time>
      </trkpt>
      <trkpt lat="45.3634" lon="6.58592">
        <ele>1761.408967</ele>
        <time>2011-03-01T08:48:32Z</time>
      </trkpt>
      <trkpt lat="45.36342" lon="6.58607">
        <ele>1763.812749</ele>
        <time>2011-03-01T08:48:37Z</time>
      </trkpt>
      <trkpt lat="45.36345" lon="6.58623">
        <ele>1760.591971</ele>
        <time>2011-03-01T08:48:42Z</time>
      </trkpt>
      <trkpt lat="45.36345" lon="6.58631">
        <ele>1761.787079</ele>
        <time>2011-03-01T08:48:47Z</time>
      </trkpt>
      <trkpt lat="45.36345" lon="6.58645">
        <ele>1761.277626</ele>
        <time>2011-03-01T08:48:52Z</time>
      </trkpt>
      <trkpt lat="45.36343" lon="6.58655">
        <ele>1759.089653</ele>
        <time>2011-03-01T08:48:57Z</time>
      </trkpt>
      <trkpt lat="45.36345" lon="6.58668">
        <ele>1759.211218</ele>
        <time>2011-03-01T08:49:02Z</time>
      </trkpt>
      <trkpt lat="45.36342" lon="6.58678">
        <ele>1759.828753</ele>
        <time>2011-03-01T08:49:07Z</time>
      </trkpt>
      <trkpt lat="45.3634" lon="6.58685">
        <ele>1760.298715</ele>
        <time>2011-03-01T08:49:12Z</time>
      </trkpt>
      <trkpt lat="45.36338" lon="6.58692">
        <ele>1759.97651</ele>
        <time>2011-03-01T08:49:17Z</time>
      </trkpt>
      <trkpt lat="45.36334" lon="6.58699">
        <ele>1761.130847</ele>
        <time>2011-03-01T08:49:22Z</time>
      </trkpt>
      <trkpt lat="45.36331" lon="6.58705">
        <ele>1761.506623</ele>
        <time>2011-03-01T08:49:27Z</time>
      </trkpt>
      <trkpt lat="45.36331" lon="6.58714">
        <ele>1759.963296</ele>
        <time>2011-03-01T08:49:32Z</time>
      </trkpt>
      <trkpt lat="45.36328" lon="6.58721">
        <ele>1761.829229</ele>
        <time>2011-03-01T08:49:37Z</time>
      </trkpt>
      <trkpt lat="45.36325" lon="6.58726">
        <ele>1762.12442</ele>
        <time>2011-03-01T08:49:42Z</time>
      </trkpt>
      <trkpt lat="45.36323" lon="6.58731">
        <ele>1761.010069</ele>
        <time>2011-03-01T08:49:47Z</time>
      </trkpt>
      <trkpt lat="45.36317" lon="6.58738">
        <ele>1760.029719</ele>
        <time>2011-03-01T08:49:52Z</time>
      </trkpt>
      <trkpt lat="45.36312" lon="6.58744">
        <ele>1758.968777</ele>
        <time>2011-03-01T08:49:57Z</time>
      </trkpt>
      <trkpt lat="45.36308" lon="6.58747">
        <ele>1757.760237</ele>
        <time>2011-03-01T08:50:02Z</time>
      </trkpt>
      <trkpt lat="45.36302" lon="6.58751">
        <ele>1758.645621</ele>
        <time>2011-03-01T08:50:07Z</time>
      </trkpt>
      <trkpt lat="45.36295" lon="6.58756">
        <ele>1760.390196</ele>
        <time>2011-03-01T08:50:12Z</time>
      </trkpt>
      <trkpt lat="45.3629" lon="6.58761">
        <ele>1761.369799</ele>
        <time>2011-03-01T08:50:17Z</time>
      </trkpt>
      <trkpt lat="45.36286" lon="6.58764">
        <ele>1761.570827</ele>
        <time>2011-03-01T08:50:22Z</time>
      </trkpt>
      <trkpt lat="45.36281" lon="6.58771">
        <ele>1761.302109</ele>
        <time>2011-03-01T08:50:27Z</time>
      </trkpt>
      <trkpt lat="45.36277" lon="6.58776">
        <ele>1760.872186</ele>
        <time>2011-03-01T08:50:32Z</time>
      </trkpt>
      <trkpt lat="45.36274" lon="6.58778">
        <ele>1761.006215</ele>
        <time>2011-03-01T08:50:37Z</time>
      </trkpt>
      <trkpt lat="45.36268" lon="6.58781">
        <ele>1761.891646</ele>
        <time>2011-03-01T08:50:42Z</time>
      </trkpt>
      <trkpt lat="45.36261" lon="6.58783">
        <ele>1761.98491</ele>
        <time>2011-03-01T08:50:47Z</time>
      </trkpt>
      <trkpt lat="45.36256" lon="6.58784">
        <ele>1764.910861</ele>
        <time>2011-03-01T08:50:52Z</time>
      </trkpt>
      <trkpt lat="45.36251" lon="6.58786">
        <ele>1765.017727</ele>
        <time>2011-03-01T08:50:57Z</time>
      </trkpt>
      <trkpt lat="45.36246" lon="6.58789">
        <ele>1760.197982</ele>
        <time>2011-03-01T08:51:02Z</time>
      </trkpt>
      <trkpt lat="45.36241" lon="6.58789">
        <ele>1761.633794</ele>
        <time>2011-03-01T08:51:07Z</time>
      </trkpt>
      <trkpt lat="45.36235" lon="6.58794">
        <ele>1761.190332</ele>
        <time>2011-03-01T08:51:12Z</time>
      </trkpt>
      <trkpt lat="45.36231" lon="6.58798">
        <ele>1762.88157</ele>
        <time>2011-03-01T08:51:17Z</time>
      </trkpt>
      <trkpt lat="45.36228" lon="6.58803">
        <ele>1765.99594</ele>
        <time>2011-03-01T08:51:22Z</time>
      </trkpt>
      <trkpt lat="45.36225" lon="6.58809">
        <ele>1764.250727</ele>
        <time>2011-03-01T08:51:27Z</time>
      </trkpt>
      <trkpt lat="45.36221" lon="6.58817">
        <ele>1761.874571</ele>
        <time>2011-03-01T08:51:32Z</time>
      </trkpt>
      <trkpt lat="45.36217" lon="6.58817">
        <ele>1764.035552</ele>
        <time>2011-03-01T08:51:37Z</time>
      </trkpt>
      <trkpt lat="45.36211" lon="6.5882">
        <ele>1763.511515</ele>
        <time>2011-03-01T08:51:42Z</time>
      </trkpt>
      <trkpt lat="45.36207" lon="6.58822">
        <ele>1765.041555</ele>
        <time>2011-03-01T08:51:47Z</time>
      </trkpt>
      <trkpt lat="45.362" lon="6.58823">
        <ele>1762.933182</ele>
        <time>2011-03-01T08:51:52Z</time>
      </trkpt>
      <trkpt lat="45.36195" lon="6.58825">
        <ele>1763.738097</ele>
        <time>2011-03-01T08:51:57Z</time>
      </trkpt>
      <trkpt lat="45.36189" lon="6.58825">
        <ele>1764.462404</ele>
        <time>2011-03-01T08:52:02Z</time>
      </trkpt>
      <trkpt lat="45.36184" lon="6.58826">
        <ele>1763.079186</ele>
        <time>2011-03-01T08:52:07Z</time>
      </trkpt>
      <trkpt lat="45.3618" lon="6.58828">
        <ele>1762.501716</ele>
        <time>2011-03-01T08:52:12Z</time>
      </trkpt>
      <trkpt lat="45.36176" lon="6.58828">
        <ele>1761.749448</ele>
        <time>2011-03-01T08:52:17Z</time>
      </trkpt>
      <trkpt lat="45.36172" lon="6.58828">
        <ele>1760.299196</ele>
        <time>2011-03-01T08:52:22Z</time>
      </trkpt>
      <trkpt lat="45.36169" lon="6.58827">
        <ele>1759.560503</ele>
        <time>2011-03-01T08:52:28Z</time>
      </trkpt>
      <trkpt lat="45.36165" lon="6.58824">
        <ele>1761.466105</ele>
        <time>2011-03-01T08:52:34Z</time>
      </trkpt>
      <trkpt lat="45.36157" lon="6.58819">
        <ele>1763.250402</ele>
        <time>2011-03-01T08:52:39Z</time>
      </trkpt>
      <trkpt lat="45.36153" lon="6.58819">
        <ele>1762.511719</ele>
        <time>2011-03-01T08:52:44Z</time>
      </trkpt>
      <trkpt lat="45.36149" lon="6.58824">
        <ele>1759.262844</ele>
        <time>2011-03-01T08:53:03Z</time>
      </trkpt>
      <trkpt lat="45.36146" lon="6.58828">
        <ele>1755.24893</ele>
        <time>2011-03-01T08:53:09Z</time>
      </trkpt>
      <trkpt lat="45.36141" lon="6.58828">
        <ele>1758.09439</ele>
        <time>2011-03-01T08:53:19Z</time>
      </trkpt>
      <trkpt lat="45.36131" lon="6.58823">
        <ele>1759.153611</ele>
        <time>2011-03-01T08:53:24Z</time>
      </trkpt>
      <trkpt lat="45.36122" lon="6.58821">
        <ele>1758.978095</ele>
        <time>2011-03-01T08:53:29Z</time>
      </trkpt>
      <trkpt lat="45.3612" lon="6.58819">
        <ele>1758.870368</ele>
        <time>2011-03-01T08:53:34Z</time>
      </trkpt>
      <trkpt lat="45.36117" lon="6.58818">
        <ele>1758.051093</ele>
        <time>2011-03-01T08:53:41Z</time>
      </trkpt>
      <trkpt lat="45.36109" lon="6.58821">
        <ele>1754.694529</ele>
        <time>2011-03-01T08:54:02Z</time>
      </trkpt>
      <trkpt lat="45.36103" lon="6.58825">
        <ele>1750.639979</ele>
        <time>2011-03-01T08:54:08Z</time>
      </trkpt>
      <trkpt lat="45.36098" lon="6.58828">
        <ele>1746.598989</ele>
        <time>2011-03-01T08:54:13Z</time>
      </trkpt>
      <trkpt lat="45.3609" lon="6.58831">
        <ele>1748.169088</ele>
        <time>2011-03-01T08:54:26Z</time>
      </trkpt>
      <trkpt lat="45.36074" lon="6.58841">
        <ele>1744.503454</ele>
        <time>2011-03-01T08:54:31Z</time>
      </trkpt>
      <trkpt lat="45.36072" lon="6.58843">
        <ele>1745.349146</ele>
        <time>2011-03-01T08:54:36Z</time>
      </trkpt>
      <trkpt lat="45.36068" lon="6.58848">
        <ele>1741.402357</ele>
        <time>2011-03-01T08:54:42Z</time>
      </trkpt>
      <trkpt lat="45.3606" lon="6.5885">
        <ele>1742.891887</ele>
        <time>2011-03-01T08:54:58Z</time>
      </trkpt>
      <trkpt lat="45.36048" lon="6.58852">
        <ele>1748.650066</ele>
        <time>2011-03-01T08:55:03Z</time>
      </trkpt>
      <trkpt lat="45.36046" lon="6.58854">
        <ele>1750.193775</ele>
        <time>2011-03-01T08:55:08Z</time>
      </trkpt>
      <trkpt lat="45.36042" lon="6.58856">
        <ele>1748.206855</ele>
        <time>2011-03-01T08:55:17Z</time>
      </trkpt>
      <trkpt lat="45.36035" lon="6.58869">
        <ele>1741.897665</ele>
        <time>2011-03-01T08:55:35Z</time>
      </trkpt>
      <trkpt lat="45.36033" lon="6.58871">
        <ele>1741.333835</ele>
        <time>2011-03-01T08:55:41Z</time>
      </trkpt>
      <trkpt lat="45.3603" lon="6.58881">
        <ele>1735.521411</ele>
        <time>2011-03-01T08:55:53Z</time>
      </trkpt>
      <trkpt lat="45.36021" lon="6.58891">
        <ele>1734.044748</ele>
        <time>2011-03-01T08:55:58Z</time>
      </trkpt>
      <trkpt lat="45.36017" lon="6.58897">
        <ele>1727.990472</ele>
        <time>2011-03-01T08:56:18Z</time>
      </trkpt>
      <trkpt lat="45.36015" lon="6.58904">
        <ele>1724.232067</ele>
        <time>2011-03-01T08:56:47Z</time>
      </trkpt>
      <trkpt lat="45.3601" lon="6.58916">
        <ele>1715.036786</ele>
        <time>2011-03-01T08:57:14Z</time>
      </trkpt>
      <trkpt lat="45.35995" lon="6.58918">
        <ele>1717.237414</ele>
        <time>2011-03-01T08:57:31Z</time>
      </trkpt>
      <trkpt lat="45.35979" lon="6.58929">
        <ele>1720.700505</ele>
        <time>2011-03-01T08:57:36Z</time>
      </trkpt>
      <trkpt lat="45.35975" lon="6.58936">
        <ele>1720.445713</ele>
        <time>2011-03-01T08:57:41Z</time>
      </trkpt>
      <trkpt lat="45.35972" lon="6.58944">
        <ele>1719.492917</ele>
        <time>2011-03-01T08:57:46Z</time>
      </trkpt>
      <trkpt lat="45.35963" lon="6.58958">
        <ele>1756.557891</ele>
        <time>2011-03-01T08:57:58Z</time>
      </trkpt>
      <trkpt lat="45.35955" lon="6.58967">
        <ele>1782.654908</ele>
        <time>2011-03-01T08:58:03Z</time>
      </trkpt>
      <trkpt lat="45.3595" lon="6.58976">
        <ele>1781.057737</ele>
        <time>2011-03-01T08:58:08Z</time>
      </trkpt>
      <trkpt lat="45.35946" lon="6.58975">
        <ele>1779.607648</ele>
        <time>2011-03-01T08:58:13Z</time>
      </trkpt>
      <trkpt lat="45.35941" lon="6.58975">
        <ele>1779.55359</ele>
        <time>2011-03-01T08:58:32Z</time>
      </trkpt>
      <trkpt lat="45.35937" lon="6.58973">
        <ele>1780.841957</ele>
        <time>2011-03-01T08:58:42Z</time>
      </trkpt>
      <trkpt lat="45.35929" lon="6.58982">
        <ele>1772.868086</ele>
        <time>2011-03-01T08:58:47Z</time>
      </trkpt>
      <trkpt lat="45.35912" lon="6.58996">
        <ele>1763.095314</ele>
        <time>2011-03-01T08:58:52Z</time>
      </trkpt>
      <trkpt lat="45.35907" lon="6.59002">
        <ele>1759.927384</ele>
        <time>2011-03-01T08:58:57Z</time>
      </trkpt>
      <trkpt lat="45.35903" lon="6.59003">
        <ele>1760.665527</ele>
        <time>2011-03-01T08:59:02Z</time>
      </trkpt>
      <trkpt lat="45.35903" lon="6.59009">
        <ele>1758.169005</ele>
        <time>2011-03-01T08:59:10Z</time>
      </trkpt>
      <trkpt lat="45.35902" lon="6.59012">
        <ele>1756.289863</ele>
        <time>2011-03-01T08:59:21Z</time>
      </trkpt>
      <trkpt lat="45.359" lon="6.59019">
        <ele>1751.739418</ele>
        <time>2011-03-01T08:59:26Z</time>
      </trkpt>
      <trkpt lat="45.359" lon="6.59024">
        <ele>1749.954427</ele>
        <time>2011-03-01T08:59:31Z</time>
      </trkpt>
      <trkpt lat="45.359" lon="6.59035">
        <ele>1749.901558</ele>
        <time>2011-03-01T08:59:56Z</time>
      </trkpt>
      <trkpt lat="45.35899" lon="6.59046">
        <ele>1748.506298</ele>
        <time>2011-03-01T09:00:01Z</time>
      </trkpt>
      <trkpt lat="45.35899" lon="6.59053">
        <ele>1745.392427</ele>
        <time>2011-03-01T09:00:22Z</time>
      </trkpt>
      <trkpt lat="45.35901" lon="6.5907">
        <ele>1737.231938</ele>
        <time>2011-03-01T09:00:27Z</time>
      </trkpt>
      <trkpt lat="45.35903" lon="6.59075">
        <ele>1737.581545</ele>
        <time>2011-03-01T09:00:37Z</time>
      </trkpt>
      <trkpt lat="45.35905" lon="6.59083">
        <ele>1737.380931</ele>
        <time>2011-03-01T09:00:52Z</time>
      </trkpt>
      <trkpt lat="45.35902" lon="6.59096">
        <ele>1747.409852</ele>
        <time>2011-03-01T09:00:58Z</time>
      </trkpt>
      <trkpt lat="45.35899" lon="6.59126">
        <ele>1764.917639</ele>
        <time>2011-03-01T09:01:03Z</time>
      </trkpt>
      <trkpt lat="45.35899" lon="6.59133">
        <ele>1769.630198</ele>
        <time>2011-03-01T09:01:08Z</time>
      </trkpt>
      <trkpt lat="45.35898" lon="6.59138">
        <ele>1769.241301</ele>
        <time>2011-03-01T09:01:13Z</time>
      </trkpt>
      <trkpt lat="45.35897" lon="6.59144">
        <ele>1771.752146</ele>
        <time>2011-03-01T09:01:18Z</time>
      </trkpt>
      <trkpt lat="45.35894" lon="6.5915">
        <ele>1774.24949</ele>
        <time>2011-03-01T09:01:23Z</time>
      </trkpt>
      <trkpt lat="45.35893" lon="6.59153">
        <ele>1780.116124</ele>
        <time>2011-03-01T09:01:34Z</time>
      </trkpt>
      <trkpt lat="45.35892" lon="6.59156">
        <ele>1786.694281</ele>
        <time>2011-03-01T09:01:43Z</time>
      </trkpt>
      <trkpt lat="45.35893" lon="6.59168">
        <ele>1790.333467</ele>
        <time>2011-03-01T09:01:48Z</time>
      </trkpt>
      <trkpt lat="45.35893" lon="6.59175">
        <ele>1793.569358</ele>
        <time>2011-03-01T09:01:53Z</time>
      </trkpt>
      <trkpt lat="45.35891" lon="6.59177">
        <ele>1795.824734</ele>
        <time>2011-03-01T09:02:16Z</time>
      </trkpt>
      <trkpt lat="45.35891" lon="6.5918">
        <ele>1795.355198</ele>
        <time>2011-03-01T09:02:21Z</time>
      </trkpt>
      <trkpt lat="45.35889" lon="6.59184">
        <ele>1796.993222</ele>
        <time>2011-03-01T09:02:32Z</time>
      </trkpt>
      <trkpt lat="45.35886" lon="6.59186">
        <ele>1799.235099</ele>
        <time>2011-03-01T09:02:37Z</time>
      </trkpt>
      <trkpt lat="45.35884" lon="6.59191">
        <ele>1796.013647</ele>
        <time>2011-03-01T09:04:48Z</time>
      </trkpt>
      <trkpt lat="45.35879" lon="6.59204">
        <ele>1788.322546</ele>
        <time>2011-03-01T09:04:53Z</time>
      </trkpt>
      <trkpt lat="45.35876" lon="6.59206">
        <ele>1785.557128</ele>
        <time>2011-03-01T09:04:58Z</time>
      </trkpt>
      <trkpt lat="45.35871" lon="6.5922">
        <ele>1779.342758</ele>
        <time>2011-03-01T09:05:18Z</time>
      </trkpt>
      <trkpt lat="45.35869" lon="6.59223">
        <ele>1779.571261</ele>
        <time>2011-03-01T09:05:23Z</time>
      </trkpt>
      <trkpt lat="45.35863" lon="6.59245">
        <ele>1772.431404</ele>
        <time>2011-03-01T09:05:33Z</time>
      </trkpt>
      <trkpt lat="45.35861" lon="6.59249">
        <ele>1772.659918</ele>
        <time>2011-03-01T09:05:38Z</time>
      </trkpt>
      <trkpt lat="45.35857" lon="6.59264">
        <ele>1767.251311</ele>
        <time>2011-03-01T09:05:56Z</time>
      </trkpt>
      <trkpt lat="45.35856" lon="6.59268">
        <ele>1767.479833</ele>
        <time>2011-03-01T09:06:01Z</time>
      </trkpt>
      <trkpt lat="45.35848" lon="6.59286">
        <ele>1760.782584</ele>
        <time>2011-03-01T09:06:58Z</time>
      </trkpt>
      <trkpt lat="45.35845" lon="6.59296">
        <ele>1762.112522</ele>
        <time>2011-03-01T09:07:25Z</time>
      </trkpt>
      <trkpt lat="45.35834" lon="6.59316">
        <ele>1754.838194</ele>
        <time>2011-03-01T09:07:48Z</time>
      </trkpt>
      <trkpt lat="45.35831" lon="6.59319">
        <ele>1755.053249</ele>
        <time>2011-03-01T09:07:53Z</time>
      </trkpt>
      <trkpt lat="45.35825" lon="6.59335">
        <ele>1753.229062</ele>
        <time>2011-03-01T09:08:41Z</time>
      </trkpt>
      <trkpt lat="45.35786" lon="6.59364">
        <ele>1836.55572</ele>
        <time>2011-03-01T09:08:46Z</time>
      </trkpt>
      <trkpt lat="45.35777" lon="6.59388">
        <ele>1872.078868</ele>
        <time>2011-03-01T09:08:51Z</time>
      </trkpt>
      <trkpt lat="45.35776" lon="6.59402">
        <ele>1871.556921</ele>
        <time>2011-03-01T09:08:56Z</time>
      </trkpt>
      <trkpt lat="45.35776" lon="6.59413">
        <ele>1867.973841</ele>
        <time>2011-03-01T09:09:01Z</time>
      </trkpt>
      <trkpt lat="45.35773" lon="6.5942">
        <ele>1863.504399</ele>
        <time>2011-03-01T09:09:06Z</time>
      </trkpt>
      <trkpt lat="45.35773" lon="6.59424">
        <ele>1862.336943</ele>
        <time>2011-03-01T09:09:11Z</time>
      </trkpt>
      <trkpt lat="45.35771" lon="6.5943">
        <ele>1859.115659</ele>
        <time>2011-03-01T09:09:22Z</time>
      </trkpt>
      <trkpt lat="45.35767" lon="6.59444">
        <ele>1847.98855</ele>
        <time>2011-03-01T09:09:27Z</time>
      </trkpt>
      <trkpt lat="45.35765" lon="6.59452">
        <ele>1843.519136</ele>
        <time>2011-03-01T09:10:02Z</time>
      </trkpt>
      <trkpt lat="45.35762" lon="6.59461">
        <ele>1840.539963</ele>
        <time>2011-03-01T09:10:31Z</time>
      </trkpt>
      <trkpt lat="45.3576" lon="6.59471">
        <ele>1836.151264</ele>
        <time>2011-03-01T09:10:52Z</time>
      </trkpt>
      <trkpt lat="45.3575" lon="6.59506">
        <ele>1818.515854</ele>
        <time>2011-03-01T09:10:57Z</time>
      </trkpt>
      <trkpt lat="45.35742" lon="6.59525">
        <ele>1820.4378</ele>
        <time>2011-03-01T09:11:02Z</time>
      </trkpt>
      <trkpt lat="45.3574" lon="6.59536">
        <ele>1818.250912</ele>
        <time>2011-03-01T09:11:07Z</time>
      </trkpt>
      <trkpt lat="45.35737" lon="6.59552">
        <ele>1805.097121</ele>
        <time>2011-03-01T09:12:29Z</time>
      </trkpt>
      <trkpt lat="45.35726" lon="6.59616">
        <ele>1775.061719</ele>
        <time>2011-03-01T09:12:34Z</time>
      </trkpt>
      <trkpt lat="45.35717" lon="6.59646">
        <ele>1783.34853</ele>
        <time>2011-03-01T09:12:39Z</time>
      </trkpt>
      <trkpt lat="45.35717" lon="6.5965">
        <ele>1782.181161</ele>
        <time>2011-03-01T09:13:27Z</time>
      </trkpt>
      <trkpt lat="45.35714" lon="6.59667">
        <ele>1781.176781</ele>
        <time>2011-03-01T09:13:32Z</time>
      </trkpt>
      <trkpt lat="45.35713" lon="6.59676">
        <ele>1786.668486</ele>
        <time>2011-03-01T09:13:39Z</time>
      </trkpt>
      <trkpt lat="45.35697" lon="6.59677">
        <ele>1829.277252</ele>
        <time>2011-03-01T09:14:01Z</time>
      </trkpt>
      <trkpt lat="45.35687" lon="6.59691">
        <ele>1848.55639</ele>
        <time>2011-03-01T09:14:06Z</time>
      </trkpt>
      <trkpt lat="45.35683" lon="6.59688">
        <ele>1855.482946</ele>
        <time>2011-03-01T09:14:32Z</time>
      </trkpt>
      <trkpt lat="45.35679" lon="6.59693">
        <ele>1862.182373</ele>
        <time>2011-03-01T09:14:52Z</time>
      </trkpt>
      <trkpt lat="45.35676" lon="6.59695">
        <ele>1865.135977</ele>
        <time>2011-03-01T09:15:06Z</time>
      </trkpt>
      <trkpt lat="45.35674" lon="6.59697">
        <ele>1875.848744</ele>
        <time>2011-03-01T09:15:21Z</time>
      </trkpt>
      <trkpt lat="45.35665" lon="6.59704">
        <ele>1871.312278</ele>
        <time>2011-03-01T09:15:26Z</time>
      </trkpt>
      <trkpt lat="45.35657" lon="6.59703">
        <ele>1878.359941</ele>
        <time>2011-03-01T09:16:11Z</time>
      </trkpt>
      <trkpt lat="45.35645" lon="6.59712">
        <ele>1872.45435</ele>
        <time>2011-03-01T09:16:41Z</time>
      </trkpt>
      <trkpt lat="45.35619" lon="6.59741">
        <ele>1847.972598</ele>
        <time>2011-03-01T09:16:46Z</time>
      </trkpt>
      <trkpt lat="45.35598" lon="6.59762">
        <ele>1825.181413</ele>
        <time>2011-03-01T09:16:51Z</time>
      </trkpt>
      <trkpt lat="45.35592" lon="6.59768">
        <ele>1822.000792</ele>
        <time>2011-03-01T09:16:56Z</time>
      </trkpt>
      <trkpt lat="45.35587" lon="6.59771">
        <ele>1819.28945</ele>
        <time>2011-03-01T09:17:01Z</time>
      </trkpt>
      <trkpt lat="45.35581" lon="6.59772">
        <ele>1822.91429</ele>
        <time>2011-03-01T09:17:14Z</time>
      </trkpt>
      <trkpt lat="45.35579" lon="6.59772">
        <ele>1824.29695</ele>
        <time>2011-03-01T09:17:23Z</time>
      </trkpt>
      <trkpt lat="45.35574" lon="6.59765">
        <ele>1825.249049</ele>
        <time>2011-03-01T09:17:53Z</time>
      </trkpt>
      <trkpt lat="45.35573" lon="6.59755">
        <ele>1828.187567</ele>
        <time>2011-03-01T09:18:21Z</time>
      </trkpt>
      <trkpt lat="45.35568" lon="6.59751">
        <ele>1828.603106</ele>
        <time>2011-03-01T09:18:26Z</time>
      </trkpt>
      <trkpt lat="45.35563" lon="6.59746">
        <ele>1827.595685</ele>
        <time>2011-03-01T09:18:38Z</time>
      </trkpt>
      <trkpt lat="45.35559" lon="6.59742">
        <ele>1823.782638</ele>
        <time>2011-03-01T09:19:21Z</time>
      </trkpt>
      <trkpt lat="45.35548" lon="6.59738">
        <ele>1819.902453</ele>
        <time>2011-03-01T09:19:26Z</time>
      </trkpt>
      <trkpt lat="45.35541" lon="6.59733">
        <ele>1818.881633</ele>
        <time>2011-03-01T09:19:31Z</time>
      </trkpt>
      <trkpt lat="45.35537" lon="6.59729">
        <ele>1815.068609</ele>
        <time>2011-03-01T09:19:52Z</time>
      </trkpt>
      <trkpt lat="45.35533" lon="6.59672">
        <ele>1841.19757</ele>
        <time>2011-03-01T09:20:09Z</time>
      </trkpt>
      <trkpt lat="45.35526" lon="6.59613">
        <ele>1862.211908</ele>
        <time>2011-03-01T09:20:14Z</time>
      </trkpt>
      <trkpt lat="45.35525" lon="6.59604">
        <ele>1866.640831</ele>
        <time>2011-03-01T09:20:19Z</time>
      </trkpt>
      <trkpt lat="45.35521" lon="6.59601">
        <ele>1866.439133</ele>
        <time>2011-03-01T09:20:27Z</time>
      </trkpt>
      <trkpt lat="45.35511" lon="6.59596">
        <ele>1856.142172</ele>
        <time>2011-03-01T09:20:32Z</time>
      </trkpt>
      <trkpt lat="45.35506" lon="6.59588">
        <ele>1850.664121</ele>
        <time>2011-03-01T09:20:37Z</time>
      </trkpt>
      <trkpt lat="45.35502" lon="6.59584">
        <ele>1846.85118</ele>
        <time>2011-03-01T09:20:42Z</time>
      </trkpt>
      <trkpt lat="45.355" lon="6.59582">
        <ele>1845.964858</ele>
        <time>2011-03-01T09:20:56Z</time>
      </trkpt>
      <trkpt lat="45.35496" lon="6.59579">
        <ele>1842.944115</ele>
        <time>2011-03-01T09:21:01Z</time>
      </trkpt>
      <trkpt lat="45.35486" lon="6.59577">
        <ele>1829.989574</ele>
        <time>2011-03-01T09:21:54Z</time>
      </trkpt>
      <trkpt lat="45.35473" lon="6.59564">
        <ele>1815.637636</ele>
        <time>2011-03-01T09:21:59Z</time>
      </trkpt>
      <trkpt lat="45.35468" lon="6.59562">
        <ele>1814.093761</ele>
        <time>2011-03-01T09:22:21Z</time>
      </trkpt>
      <trkpt lat="45.35466" lon="6.59559">
        <ele>1813.207456</ele>
        <time>2011-03-01T09:22:35Z</time>
      </trkpt>
      <trkpt lat="45.35441" lon="6.59549">
        <ele>1789.741139</ele>
        <time>2011-03-01T09:22:40Z</time>
      </trkpt>
      <trkpt lat="45.35439" lon="6.59546">
        <ele>1787.445312</ele>
        <time>2011-03-01T09:22:58Z</time>
      </trkpt>
      <trkpt lat="45.35437" lon="6.59545">
        <ele>1784.518731</ele>
        <time>2011-03-01T09:23:03Z</time>
      </trkpt>
      <trkpt lat="45.35435" lon="6.59542">
        <ele>1780.81337</ele>
        <time>2011-03-01T09:23:08Z</time>
      </trkpt>
      <trkpt lat="45.35435" lon="6.59539">
        <ele>1779.859766</ele>
        <time>2011-03-01T09:23:13Z</time>
      </trkpt>
      <trkpt lat="45.35432" lon="6.59537">
        <ele>1776.933189</ele>
        <time>2011-03-01T09:23:18Z</time>
      </trkpt>
      <trkpt lat="45.3543" lon="6.59535">
        <ele>1775.335437</ele>
        <time>2011-03-01T09:23:23Z</time>
      </trkpt>
      <trkpt lat="45.35431" lon="6.59531">
        <ele>1777.214303</ele>
        <time>2011-03-01T09:23:28Z</time>
      </trkpt>
      <trkpt lat="45.35432" lon="6.59524">
        <ele>1781.75082</ele>
        <time>2011-03-01T09:23:33Z</time>
      </trkpt>
      <trkpt lat="45.35433" lon="6.5952">
        <ele>1780.810619</ele>
        <time>2011-03-01T09:23:39Z</time>
      </trkpt>
      <trkpt lat="45.3543" lon="6.59516">
        <ele>1779.830232</ele>
        <time>2011-03-01T09:23:51Z</time>
      </trkpt>
      <trkpt lat="45.35433" lon="6.59449">
        <ele>1825.209427</ele>
        <time>2011-03-01T09:23:56Z</time>
      </trkpt>
      <trkpt lat="45.3543" lon="6.59412">
        <ele>1841.300948</ele>
        <time>2011-03-01T09:24:01Z</time>
      </trkpt>
      <trkpt lat="45.35438" lon="6.59373">
        <ele>1846.612149</ele>
        <time>2011-03-01T09:24:06Z</time>
      </trkpt>
      <trkpt lat="45.35438" lon="6.59368">
        <ele>1843.470306</ele>
        <time>2011-03-01T09:24:11Z</time>
      </trkpt>
      <trkpt lat="45.35439" lon="6.59364">
        <ele>1836.811318</ele>
        <time>2011-03-01T09:24:16Z</time>
      </trkpt>
      <trkpt lat="45.3544" lon="6.5936">
        <ele>1836.569246</ele>
        <time>2011-03-01T09:24:26Z</time>
      </trkpt>
      <trkpt lat="45.35437" lon="6.59357">
        <ele>1833.561998</ele>
        <time>2011-03-01T09:24:45Z</time>
      </trkpt>
      <trkpt lat="45.35435" lon="6.59355">
        <ele>1832.675756</ele>
        <time>2011-03-01T09:24:52Z</time>
      </trkpt>
      <trkpt lat="45.35433" lon="6.59355">
        <ele>1831.239429</ele>
        <time>2011-03-01T09:24:57Z</time>
      </trkpt>
      <trkpt lat="45.35429" lon="6.59348">
        <ele>1830.7958</ele>
        <time>2011-03-01T09:25:02Z</time>
      </trkpt>
      <trkpt lat="45.35428" lon="6.59345">
        <ele>1827.801953</ele>
        <time>2011-03-01T09:25:34Z</time>
      </trkpt>
      <trkpt lat="45.35423" lon="6.59305">
        <ele>1835.167774</ele>
        <time>2011-03-01T09:25:39Z</time>
      </trkpt>
      <trkpt lat="45.35422" lon="6.59297">
        <ele>1837.489359</ele>
        <time>2011-03-01T09:25:44Z</time>
      </trkpt>
      <trkpt lat="45.35421" lon="6.59288">
        <ele>1836.91119</ele>
        <time>2011-03-01T09:25:49Z</time>
      </trkpt>
      <trkpt lat="45.3542" lon="6.59281">
        <ele>1837.823249</ele>
        <time>2011-03-01T09:26:12Z</time>
      </trkpt>
      <trkpt lat="45.35422" lon="6.59278">
        <ele>1840.494356</ele>
        <time>2011-03-01T09:26:44Z</time>
      </trkpt>
      <trkpt lat="45.35428" lon="6.59273">
        <ele>1847.98436</ele>
        <time>2011-03-01T09:26:49Z</time>
      </trkpt>
      <trkpt lat="45.35429" lon="6.59263">
        <ele>1843.821771</ele>
        <time>2011-03-01T09:26:54Z</time>
      </trkpt>
      <trkpt lat="45.35429" lon="6.59257">
        <ele>1849.835289</ele>
        <time>2011-03-01T09:26:59Z</time>
      </trkpt>
      <trkpt lat="45.35437" lon="6.59254">
        <ele>1852.49269</ele>
        <time>2011-03-01T09:27:04Z</time>
      </trkpt>
      <trkpt lat="45.35452" lon="6.59209">
        <ele>1817.060908</ele>
        <time>2011-03-01T09:27:09Z</time>
      </trkpt>
      <trkpt lat="45.35458" lon="6.592">
        <ele>1810.830965</ele>
        <time>2011-03-01T09:27:14Z</time>
      </trkpt>
      <trkpt lat="45.35464" lon="6.59191">
        <ele>1806.010577</ele>
        <time>2011-03-01T09:27:19Z</time>
      </trkpt>
      <trkpt lat="45.35467" lon="6.59187">
        <ele>1803.607089</ele>
        <time>2011-03-01T09:27:24Z</time>
      </trkpt>
      <trkpt lat="45.35468" lon="6.59184">
        <ele>1806.976302</ele>
        <time>2011-03-01T09:27:29Z</time>
      </trkpt>
      <trkpt lat="45.35471" lon="6.59177">
        <ele>1805.109554</ele>
        <time>2011-03-01T09:27:34Z</time>
      </trkpt>
      <trkpt lat="45.35477" lon="6.5917">
        <ele>1802.571546</ele>
        <time>2011-03-01T09:27:39Z</time>
      </trkpt>
      <trkpt lat="45.35485" lon="6.59163">
        <ele>1802.167968</ele>
        <time>2011-03-01T09:27:44Z</time>
      </trkpt>
      <trkpt lat="45.3549" lon="6.59159">
        <ele>1801.187451</ele>
        <time>2011-03-01T09:27:49Z</time>
      </trkpt>
      <trkpt lat="45.35494" lon="6.59154">
        <ele>1799.495468</ele>
        <time>2011-03-01T09:27:54Z</time>
      </trkpt>
      <trkpt lat="45.35499" lon="6.5915">
        <ele>1799.226438</ele>
        <time>2011-03-01T09:27:59Z</time>
      </trkpt>
      <trkpt lat="45.35506" lon="6.59144">
        <ele>1798.890161</ele>
        <time>2011-03-01T09:28:04Z</time>
      </trkpt>
      <trkpt lat="45.35509" lon="6.59141">
        <ele>1796.567384</ele>
        <time>2011-03-01T09:28:09Z</time>
      </trkpt>
      <trkpt lat="45.35513" lon="6.59138">
        <ele>1794.24461</ele>
        <time>2011-03-01T09:28:14Z</time>
      </trkpt>
      <trkpt lat="45.35517" lon="6.59135">
        <ele>1792.633316</ele>
        <time>2011-03-01T09:28:19Z</time>
      </trkpt>
      <trkpt lat="45.35517" lon="6.59131">
        <ele>1789.572248</ele>
        <time>2011-03-01T09:28:33Z</time>
      </trkpt>
      <trkpt lat="45.35519" lon="6.59128">
        <ele>1788.645612</ele>
        <time>2011-03-01T09:28:38Z</time>
      </trkpt>
      <trkpt lat="45.35521" lon="6.59124">
        <ele>1788.417041</ele>
        <time>2011-03-01T09:28:56Z</time>
      </trkpt>
      <trkpt lat="45.35521" lon="6.5912">
        <ele>1788.17506</ele>
        <time>2011-03-01T09:29:03Z</time>
      </trkpt>
      <trkpt lat="45.35521" lon="6.59117">
        <ele>1790.134758</ele>
        <time>2011-03-01T09:29:10Z</time>
      </trkpt>
      <trkpt lat="45.35523" lon="6.59117">
        <ele>1792.967254</ele>
        <time>2011-03-01T09:29:47Z</time>
      </trkpt>
      <trkpt lat="45.35524" lon="6.59116">
        <ele>1795.71909</ele>
        <time>2011-03-01T09:29:59Z</time>
      </trkpt>
      <trkpt lat="45.35526" lon="6.59115">
        <ele>1797.772863</ele>
        <time>2011-03-01T09:30:51Z</time>
      </trkpt>
      <trkpt lat="45.35528" lon="6.59113">
        <ele>1799.826636</ele>
        <time>2011-03-01T09:31:04Z</time>
      </trkpt>
      <trkpt lat="45.3553" lon="6.59111">
        <ele>1801.799752</ele>
        <time>2011-03-01T09:31:25Z</time>
      </trkpt>
      <trkpt lat="45.35532" lon="6.59108">
        <ele>1803.772869</ele>
        <time>2011-03-01T09:31:44Z</time>
      </trkpt>
      <trkpt lat="45.35535" lon="6.59106">
        <ele>1805.047925</ele>
        <time>2011-03-01T09:31:52Z</time>
      </trkpt>
      <trkpt lat="45.35536" lon="6.59102">
        <ele>1804.107888</ele>
        <time>2011-03-01T09:32:04Z</time>
      </trkpt>
      <trkpt lat="45.35538" lon="6.591">
        <ele>1805.382946</ele>
        <time>2011-03-01T09:32:09Z</time>
      </trkpt>
      <trkpt lat="45.3554" lon="6.59097">
        <ele>1807.356069</ele>
        <time>2011-03-01T09:32:29Z</time>
      </trkpt>
      <trkpt lat="45.35545" lon="6.59094">
        <ele>1812.094456</ele>
        <time>2011-03-01T09:32:34Z</time>
      </trkpt>
      <trkpt lat="45.35578" lon="6.59047">
        <ele>1801.431245</ele>
        <time>2011-03-01T09:32:49Z</time>
      </trkpt>
      <trkpt lat="45.35596" lon="6.59023">
        <ele>1797.804578</ele>
        <time>2011-03-01T09:32:54Z</time>
      </trkpt>
      <trkpt lat="45.3561" lon="6.59005">
        <ele>1794.608169</ele>
        <time>2011-03-01T09:33:08Z</time>
      </trkpt>
      <trkpt lat="45.35613" lon="6.59003">
        <ele>1795.185234</ele>
        <time>2011-03-01T09:33:28Z</time>
      </trkpt>
      <trkpt lat="45.35616" lon="6.59001">
        <ele>1796.460356</ele>
        <time>2011-03-01T09:33:34Z</time>
      </trkpt>
      <trkpt lat="45.35618" lon="6.58998">
        <ele>1795.614447</ele>
        <time>2011-03-01T09:33:44Z</time>
      </trkpt>
      <trkpt lat="45.35627" lon="6.58985">
        <ele>1794.109933</ele>
        <time>2011-03-01T09:33:49Z</time>
      </trkpt>
      <trkpt lat="45.3564" lon="6.58974">
        <ele>1799.076073</ele>
        <time>2011-03-01T09:33:54Z</time>
      </trkpt>
      <trkpt lat="45.35649" lon="6.58967">
        <ele>1802.914949</ele>
        <time>2011-03-01T09:33:59Z</time>
      </trkpt>
      <trkpt lat="45.35655" lon="6.58958">
        <ele>1800.994702</ele>
        <time>2011-03-01T09:34:04Z</time>
      </trkpt>
      <trkpt lat="45.35662" lon="6.5895">
        <ele>1801.20895</ele>
        <time>2011-03-01T09:34:09Z</time>
      </trkpt>
      <trkpt lat="45.3567" lon="6.58946">
        <ele>1805.195707</ele>
        <time>2011-03-01T09:34:14Z</time>
      </trkpt>
      <trkpt lat="45.35676" lon="6.58943">
        <ele>1809.316855</ele>
        <time>2011-03-01T09:34:19Z</time>
      </trkpt>
      <trkpt lat="45.35678" lon="6.58941">
        <ele>1809.880527</ele>
        <time>2011-03-01T09:34:29Z</time>
      </trkpt>
      <trkpt lat="45.3568" lon="6.58939">
        <ele>1809.746152</ele>
        <time>2011-03-01T09:34:38Z</time>
      </trkpt>
      <trkpt lat="45.35682" lon="6.58936">
        <ele>1808.900283</ele>
        <time>2011-03-01T09:34:47Z</time>
      </trkpt>
      <trkpt lat="45.35684" lon="6.58934">
        <ele>1809.463959</ele>
        <time>2011-03-01T09:35:08Z</time>
      </trkpt>
      <trkpt lat="45.35687" lon="6.58933">
        <ele>1809.410225</ele>
        <time>2011-03-01T09:35:26Z</time>
      </trkpt>
      <trkpt lat="45.35691" lon="6.58932">
        <ele>1810.779487</ele>
        <time>2011-03-01T09:35:53Z</time>
      </trkpt>
      <trkpt lat="45.35697" lon="6.58927">
        <ele>1816.162387</ele>
        <time>2011-03-01T09:35:58Z</time>
      </trkpt>
      <trkpt lat="45.35699" lon="6.58925">
        <ele>1818.833661</ele>
        <time>2011-03-01T09:36:03Z</time>
      </trkpt>
      <trkpt lat="45.35702" lon="6.58923">
        <ele>1820.900978</ele>
        <time>2011-03-01T09:36:08Z</time>
      </trkpt>
      <trkpt lat="45.35704" lon="6.58921">
        <ele>1820.05512</ele>
        <time>2011-03-01T09:36:15Z</time>
      </trkpt>
      <trkpt lat="45.35707" lon="6.58919">
        <ele>1818.51122</ele>
        <time>2011-03-01T09:36:20Z</time>
      </trkpt>
      <trkpt lat="45.35709" lon="6.58918">
        <ele>1818.457499</ele>
        <time>2011-03-01T09:36:26Z</time>
      </trkpt>
      <trkpt lat="45.35712" lon="6.58917">
        <ele>1816.994235</ele>
        <time>2011-03-01T09:36:31Z</time>
      </trkpt>
      <trkpt lat="45.35717" lon="6.58917">
        <ele>1814.846386</ele>
        <time>2011-03-01T09:36:36Z</time>
      </trkpt>
      <trkpt lat="45.3572" lon="6.58916">
        <ele>1815.504171</ele>
        <time>2011-03-01T09:36:41Z</time>
      </trkpt>
      <trkpt lat="45.35723" lon="6.58914">
        <ele>1815.369824</ele>
        <time>2011-03-01T09:36:46Z</time>
      </trkpt>
      <trkpt lat="45.35724" lon="6.58914">
        <ele>1812.564195</ele>
        <time>2011-03-01T09:36:52Z</time>
      </trkpt>
      <trkpt lat="45.35725" lon="6.5891">
        <ele>1810.214713</ele>
        <time>2011-03-01T09:37:08Z</time>
      </trkpt>
      <trkpt lat="45.35726" lon="6.58906">
        <ele>1804.267471</ele>
        <time>2011-03-01T09:37:13Z</time>
      </trkpt>
      <trkpt lat="45.35728" lon="6.58902">
        <ele>1800.441277</ele>
        <time>2011-03-01T09:37:18Z</time>
      </trkpt>
      <trkpt lat="45.3573" lon="6.58899">
        <ele>1794.574669</ele>
        <time>2011-03-01T09:37:23Z</time>
      </trkpt>
      <trkpt lat="45.35731" lon="6.58895">
        <ele>1791.527152</ele>
        <time>2011-03-01T09:37:28Z</time>
      </trkpt>
      <trkpt lat="45.35734" lon="6.58888">
        <ele>1788.949251</ele>
        <time>2011-03-01T09:37:40Z</time>
      </trkpt>
      <trkpt lat="45.35735" lon="6.58882">
        <ele>1785.740481</ele>
        <time>2011-03-01T09:37:46Z</time>
      </trkpt>
      <trkpt lat="45.35736" lon="6.58877">
        <ele>1783.310384</ele>
        <time>2011-03-01T09:37:51Z</time>
      </trkpt>
      <trkpt lat="45.35738" lon="6.58873">
        <ele>1781.591793</ele>
        <time>2011-03-01T09:37:56Z</time>
      </trkpt>
      <trkpt lat="45.35742" lon="6.58872">
        <ele>1782.9611</ele>
        <time>2011-03-01T09:38:01Z</time>
      </trkpt>
      <trkpt lat="45.35744" lon="6.58869">
        <ele>1782.115269</ele>
        <time>2011-03-01T09:38:21Z</time>
      </trkpt>
      <trkpt lat="45.35746" lon="6.5886">
        <ele>1774.436003</ele>
        <time>2011-03-01T09:38:26Z</time>
      </trkpt>
      <trkpt lat="45.3575" lon="6.58851">
        <ele>1766.783674</ele>
        <time>2011-03-01T09:38:31Z</time>
      </trkpt>
      <trkpt lat="45.35761" lon="6.58834">
        <ele>1757.922828</ele>
        <time>2011-03-01T09:38:36Z</time>
      </trkpt>
      <trkpt lat="45.35796" lon="6.58818">
        <ele>1778.301054</ele>
        <time>2011-03-01T09:38:41Z</time>
      </trkpt>
      <trkpt lat="45.3581" lon="6.58813">
        <ele>1783.684394</ele>
        <time>2011-03-01T09:38:46Z</time>
      </trkpt>
      <trkpt lat="45.35824" lon="6.58803">
        <ele>1789.523956</ele>
        <time>2011-03-01T09:38:51Z</time>
      </trkpt>
      <trkpt lat="45.35831" lon="6.588">
        <ele>1789.349522</ele>
        <time>2011-03-01T09:38:56Z</time>
      </trkpt>
      <trkpt lat="45.35833" lon="6.58798">
        <ele>1789.215258</ele>
        <time>2011-03-01T09:39:09Z</time>
      </trkpt>
      <trkpt lat="45.35836" lon="6.58796">
        <ele>1787.67145</ele>
        <time>2011-03-01T09:39:15Z</time>
      </trkpt>
      <trkpt lat="45.35845" lon="6.58792">
        <ele>1790.960513</ele>
        <time>2011-03-01T09:39:21Z</time>
      </trkpt>
      <trkpt lat="45.35854" lon="6.5879">
        <ele>1793.712794</ele>
        <time>2011-03-01T09:39:26Z</time>
      </trkpt>
      <trkpt lat="45.35861" lon="6.58792">
        <ele>1793.162834</ele>
        <time>2011-03-01T09:39:31Z</time>
      </trkpt>
      <trkpt lat="45.35865" lon="6.58791">
        <ele>1793.834214</ele>
        <time>2011-03-01T09:39:36Z</time>
      </trkpt>
      <trkpt lat="45.35874" lon="6.58796">
        <ele>1791.351424</ele>
        <time>2011-03-01T09:39:41Z</time>
      </trkpt>
      <trkpt lat="45.35884" lon="6.58799">
        <ele>1784.49228</ele>
        <time>2011-03-01T09:39:46Z</time>
      </trkpt>
      <trkpt lat="45.35893" lon="6.58798">
        <ele>1780.1969</ele>
        <time>2011-03-01T09:39:51Z</time>
      </trkpt>
      <trkpt lat="45.35899" lon="6.58798">
        <ele>1777.364694</ele>
        <time>2011-03-01T09:39:56Z</time>
      </trkpt>
      <trkpt lat="45.35906" lon="6.58795">
        <ele>1774.371266</ele>
        <time>2011-03-01T09:40:01Z</time>
      </trkpt>
      <trkpt lat="45.35911" lon="6.58795">
        <ele>1771.525573</ele>
        <time>2011-03-01T09:40:06Z</time>
      </trkpt>
      <trkpt lat="45.35916" lon="6.58791">
        <ele>1767.726515</ele>
        <time>2011-03-01T09:40:11Z</time>
      </trkpt>
      <trkpt lat="45.3592" lon="6.58786">
        <ele>1764.625484</ele>
        <time>2011-03-01T09:40:16Z</time>
      </trkpt>
      <trkpt lat="45.35923" lon="6.58779">
        <ele>1762.75927</ele>
        <time>2011-03-01T09:40:21Z</time>
      </trkpt>
      <trkpt lat="45.35925" lon="6.58773">
        <ele>1761.671695</ele>
        <time>2011-03-01T09:40:26Z</time>
      </trkpt>
      <trkpt lat="45.35928" lon="6.58769">
        <ele>1759.966716</ele>
        <time>2011-03-01T09:40:31Z</time>
      </trkpt>
      <trkpt lat="45.35931" lon="6.58767">
        <ele>1762.034194</ele>
        <time>2011-03-01T09:40:43Z</time>
      </trkpt>
      <trkpt lat="45.35934" lon="6.58768">
        <ele>1763.470758</ele>
        <time>2011-03-01T09:40:52Z</time>
      </trkpt>
      <trkpt lat="45.35941" lon="6.58767">
        <ele>1768.397862</ele>
        <time>2011-03-01T09:41:02Z</time>
      </trkpt>
      <trkpt lat="45.35955" lon="6.58767">
        <ele>1780.534397</ele>
        <time>2011-03-01T09:41:07Z</time>
      </trkpt>
      <trkpt lat="45.35958" lon="6.58767">
        <ele>1781.970973</ele>
        <time>2011-03-01T09:41:12Z</time>
      </trkpt>
      <trkpt lat="45.35962" lon="6.58767">
        <ele>1784.132596</ele>
        <time>2011-03-01T09:41:17Z</time>
      </trkpt>
      <trkpt lat="45.35967" lon="6.58769">
        <ele>1782.857728</ele>
        <time>2011-03-01T09:41:22Z</time>
      </trkpt>
      <trkpt lat="45.35972" lon="6.58769">
        <ele>1783.529203</ele>
        <time>2011-03-01T09:41:27Z</time>
      </trkpt>
      <trkpt lat="45.35977" lon="6.58766">
        <ele>1780.522355</ele>
        <time>2011-03-01T09:41:32Z</time>
      </trkpt>
      <trkpt lat="45.35985" lon="6.58765">
        <ele>1775.515608</ele>
        <time>2011-03-01T09:41:37Z</time>
      </trkpt>
      <trkpt lat="45.35992" lon="6.58767">
        <ele>1772.844739</ele>
        <time>2011-03-01T09:41:42Z</time>
      </trkpt>
      <trkpt lat="45.35995" lon="6.58769">
        <ele>1770.146829</ele>
        <time>2011-03-01T09:41:47Z</time>
      </trkpt>
      <trkpt lat="45.36" lon="6.58769">
        <ele>1765.180145</ele>
        <time>2011-03-01T09:41:52Z</time>
      </trkpt>
      <trkpt lat="45.36005" lon="6.58766">
        <ele>1762.173326</ele>
        <time>2011-03-01T09:41:57Z</time>
      </trkpt>
      <trkpt lat="45.36017" lon="6.58763">
        <ele>1760.643703</ele>
        <time>2011-03-01T09:42:02Z</time>
      </trkpt>
      <trkpt lat="45.36023" lon="6.58762">
        <ele>1757.019505</ele>
        <time>2011-03-01T09:42:07Z</time>
      </trkpt>
      <trkpt lat="45.36034" lon="6.58757">
        <ele>1756.026711</ele>
        <time>2011-03-01T09:42:12Z</time>
      </trkpt>
      <trkpt lat="45.36041" lon="6.58757">
        <ele>1753.906223</ele>
        <time>2011-03-01T09:42:17Z</time>
      </trkpt>
      <trkpt lat="45.36047" lon="6.58758">
        <ele>1751.852816</ele>
        <time>2011-03-01T09:42:22Z</time>
      </trkpt>
      <trkpt lat="45.36052" lon="6.58761">
        <ele>1751.370179</ele>
        <time>2011-03-01T09:42:27Z</time>
      </trkpt>
      <trkpt lat="45.36057" lon="6.58764">
        <ele>1750.176006</ele>
        <time>2011-03-01T09:42:32Z</time>
      </trkpt>
      <trkpt lat="45.36063" lon="6.58767">
        <ele>1748.283836</ele>
        <time>2011-03-01T09:42:37Z</time>
      </trkpt>
      <trkpt lat="45.36068" lon="6.58768">
        <ele>1746.928456</ele>
        <time>2011-03-01T09:42:42Z</time>
      </trkpt>
      <trkpt lat="45.36074" lon="6.58768">
        <ele>1744.79447</ele>
        <time>2011-03-01T09:42:47Z</time>
      </trkpt>
      <trkpt lat="45.36078" lon="6.58771">
        <ele>1744.29832</ele>
        <time>2011-03-01T09:42:52Z</time>
      </trkpt>
      <trkpt lat="45.3608" lon="6.58775">
        <ele>1744.56724</ele>
        <time>2011-03-01T09:42:57Z</time>
      </trkpt>
      <trkpt lat="45.36082" lon="6.58783">
        <ele>1742.258903</ele>
        <time>2011-03-01T09:43:02Z</time>
      </trkpt>
      <trkpt lat="45.36082" lon="6.5878">
        <ele>1746.326318</ele>
        <time>2011-03-01T09:43:07Z</time>
      </trkpt>
      <trkpt lat="45.36082" lon="6.58782">
        <ele>1749.306632</ele>
        <time>2011-03-01T09:43:21Z</time>
      </trkpt>
      <trkpt lat="45.3608" lon="6.58781">
        <ele>1751.320021</ele>
        <time>2011-03-01T09:43:47Z</time>
      </trkpt>
      <trkpt lat="45.36079" lon="6.58779">
        <ele>1754.044956</ele>
        <time>2011-03-01T09:44:13Z</time>
      </trkpt>
      <trkpt lat="45.36077" lon="6.58777">
        <ele>1756.058347</ele>
        <time>2011-03-01T09:45:12Z</time>
      </trkpt>
      <trkpt lat="45.36079" lon="6.5878">
        <ele>1754.125567</ele>
        <time>2011-03-01T09:46:28Z</time>
      </trkpt>
      <trkpt lat="45.36081" lon="6.58778">
        <ele>1753.279891</ele>
        <time>2011-03-01T09:53:01Z</time>
      </trkpt>
      <trkpt lat="45.36085" lon="6.58775">
        <ele>1753.078698</ele>
        <time>2011-03-01T09:53:06Z</time>
      </trkpt>
      <trkpt lat="45.36091" lon="6.5877">
        <ele>1754.219993</ele>
        <time>2011-03-01T09:53:11Z</time>
      </trkpt>
      <trkpt lat="45.36098" lon="6.58771">
        <ele>1753.589737</ele>
        <time>2011-03-01T09:53:16Z</time>
      </trkpt>
      <trkpt lat="45.36101" lon="6.58764">
        <ele>1753.133183</ele>
        <time>2011-03-01T09:53:21Z</time>
      </trkpt>
      <trkpt lat="45.36104" lon="6.58759">
        <ele>1753.5494</ele>
        <time>2011-03-01T09:53:26Z</time>
      </trkpt>
      <trkpt lat="45.36106" lon="6.58753">
        <ele>1752.461916</ele>
        <time>2011-03-01T09:53:31Z</time>
      </trkpt>
      <trkpt lat="45.36112" lon="6.58748">
        <ele>1752.193697</ele>
        <time>2011-03-01T09:53:36Z</time>
      </trkpt>
      <trkpt lat="45.36117" lon="6.58745">
        <ele>1753.415637</ele>
        <time>2011-03-01T09:53:41Z</time>
      </trkpt>
      <trkpt lat="45.36122" lon="6.58742">
        <ele>1749.697394</ele>
        <time>2011-03-01T09:53:46Z</time>
      </trkpt>
      <trkpt lat="45.36124" lon="6.58731">
        <ele>1748.28751</ele>
        <time>2011-03-01T09:53:51Z</time>
      </trkpt>
      <trkpt lat="45.36128" lon="6.58726">
        <ele>1750.113304</ele>
        <time>2011-03-01T09:53:56Z</time>
      </trkpt>
      <trkpt lat="45.36129" lon="6.58721">
        <ele>1749.804448</ele>
        <time>2011-03-01T09:54:01Z</time>
      </trkpt>
      <trkpt lat="45.36132" lon="6.58716">
        <ele>1749.509151</ele>
        <time>2011-03-01T09:54:06Z</time>
      </trkpt>
      <trkpt lat="45.36135" lon="6.58712">
        <ele>1749.92541</ele>
        <time>2011-03-01T09:54:11Z</time>
      </trkpt>
      <trkpt lat="45.36141" lon="6.58708">
        <ele>1751.147387</ele>
        <time>2011-03-01T09:54:16Z</time>
      </trkpt>
      <trkpt lat="45.36144" lon="6.58704">
        <ele>1747.335016</ele>
        <time>2011-03-01T09:54:21Z</time>
      </trkpt>
      <trkpt lat="45.36148" lon="6.587">
        <ele>1746.422342</ele>
        <time>2011-03-01T09:54:26Z</time>
      </trkpt>
      <trkpt lat="45.36149" lon="6.58696">
        <ele>1750.422744</ele>
        <time>2011-03-01T09:54:31Z</time>
      </trkpt>
      <trkpt lat="45.36153" lon="6.58691">
        <ele>1748.650886</ele>
        <time>2011-03-01T09:54:36Z</time>
      </trkpt>
      <trkpt lat="45.36153" lon="6.58681">
        <ele>1751.603784</ele>
        <time>2011-03-01T09:54:41Z</time>
      </trkpt>
      <trkpt lat="45.36157" lon="6.58674">
        <ele>1749.751341</ele>
        <time>2011-03-01T09:54:46Z</time>
      </trkpt>
      <trkpt lat="45.36159" lon="6.58658">
        <ele>1756.543482</ele>
        <time>2011-03-01T09:54:51Z</time>
      </trkpt>
      <trkpt lat="45.36162" lon="6.58654">
        <ele>1756.248231</ele>
        <time>2011-03-01T09:54:56Z</time>
      </trkpt>
      <trkpt lat="45.36166" lon="6.58647">
        <ele>1758.705049</ele>
        <time>2011-03-01T09:55:01Z</time>
      </trkpt>
      <trkpt lat="45.36168" lon="6.58641">
        <ele>1760.436753</ele>
        <time>2011-03-01T09:55:06Z</time>
      </trkpt>
      <trkpt lat="45.3617" lon="6.58635">
        <ele>1760.758913</ele>
        <time>2011-03-01T09:55:11Z</time>
      </trkpt>
      <trkpt lat="45.36173" lon="6.58626">
        <ele>1761.631454</ele>
        <time>2011-03-01T09:55:16Z</time>
      </trkpt>
      <trkpt lat="45.36177" lon="6.5862">
        <ele>1761.967192</ele>
        <time>2011-03-01T09:55:21Z</time>
      </trkpt>
      <trkpt lat="45.36181" lon="6.58613">
        <ele>1761.524358</ele>
        <time>2011-03-01T09:55:26Z</time>
      </trkpt>
      <trkpt lat="45.36185" lon="6.58608">
        <ele>1761.242708</ele>
        <time>2011-03-01T09:55:31Z</time>
      </trkpt>
      <trkpt lat="45.36187" lon="6.58605">
        <ele>1760.316523</ele>
        <time>2011-03-01T09:55:39Z</time>
      </trkpt>
      <trkpt lat="45.36193" lon="6.58596">
        <ele>1759.806691</ele>
        <time>2011-03-01T09:55:44Z</time>
      </trkpt>
      <trkpt lat="45.36198" lon="6.58589">
        <ele>1761.484994</ele>
        <time>2011-03-01T09:55:49Z</time>
      </trkpt>
      <trkpt lat="45.36202" lon="6.58585">
        <ele>1761.203368</ele>
        <time>2011-03-01T09:55:54Z</time>
      </trkpt>
      <trkpt lat="45.36207" lon="6.5858">
        <ele>1761.633308</ele>
        <time>2011-03-01T09:55:59Z</time>
      </trkpt>
      <trkpt lat="45.36211" lon="6.58577">
        <ele>1760.734291</ele>
        <time>2011-03-01T09:56:04Z</time>
      </trkpt>
      <trkpt lat="45.36213" lon="6.58574">
        <ele>1761.298259</ele>
        <time>2011-03-01T09:56:09Z</time>
      </trkpt>
      <trkpt lat="45.3622" lon="6.58564">
        <ele>1760.640891</ele>
        <time>2011-03-01T09:56:14Z</time>
      </trkpt>
      <trkpt lat="45.36223" lon="6.58558">
        <ele>1760.265135</ele>
        <time>2011-03-01T09:56:19Z</time>
      </trkpt>
      <trkpt lat="45.36228" lon="6.58554">
        <ele>1760.775688</ele>
        <time>2011-03-01T09:56:24Z</time>
      </trkpt>
      <trkpt lat="45.36233" lon="6.58552">
        <ele>1759.957278</ele>
        <time>2011-03-01T09:56:29Z</time>
      </trkpt>
      <trkpt lat="45.36237" lon="6.58549">
        <ele>1759.756277</ele>
        <time>2011-03-01T09:56:34Z</time>
      </trkpt>
      <trkpt lat="45.36242" lon="6.58547">
        <ele>1760.361006</ele>
        <time>2011-03-01T09:56:39Z</time>
      </trkpt>
      <trkpt lat="45.36246" lon="6.58547">
        <ele>1760.401753</ele>
        <time>2011-03-01T09:56:45Z</time>
      </trkpt>
      <trkpt lat="45.3625" lon="6.58544">
        <ele>1761.610313</ele>
        <time>2011-03-01T09:56:50Z</time>
      </trkpt>
      <trkpt lat="45.36256" lon="6.58537">
        <ele>1761.892743</ele>
        <time>2011-03-01T09:56:55Z</time>
      </trkpt>
      <trkpt lat="45.36262" lon="6.58535">
        <ele>1761.785929</ele>
        <time>2011-03-01T09:57:00Z</time>
      </trkpt>
      <trkpt lat="45.36267" lon="6.58532">
        <ele>1763.008093</ele>
        <time>2011-03-01T09:57:05Z</time>
      </trkpt>
      <trkpt lat="45.36268" lon="6.58528">
        <ele>1763.477928</ele>
        <time>2011-03-01T09:57:10Z</time>
      </trkpt>
      <trkpt lat="45.36271" lon="6.58522">
        <ele>1763.10222</ele>
        <time>2011-03-01T09:57:15Z</time>
      </trkpt>
      <trkpt lat="45.36279" lon="6.58515">
        <ele>1762.7003</ele>
        <time>2011-03-01T09:57:20Z</time>
      </trkpt>
      <trkpt lat="45.36286" lon="6.58508">
        <ele>1762.996376</ele>
        <time>2011-03-01T09:57:25Z</time>
      </trkpt>
      <trkpt lat="45.36292" lon="6.58502">
        <ele>1761.949897</ele>
        <time>2011-03-01T09:57:30Z</time>
      </trkpt>
      <trkpt lat="45.36297" lon="6.58501">
        <ele>1761.131554</ele>
        <time>2011-03-01T09:57:35Z</time>
      </trkpt>
      <trkpt lat="45.36301" lon="6.58503">
        <ele>1757.024265</ele>
        <time>2011-03-01T09:57:40Z</time>
      </trkpt>
      <trkpt lat="45.36308" lon="6.58503">
        <ele>1757.80382</ele>
        <time>2011-03-01T09:57:45Z</time>
      </trkpt>
      <trkpt lat="45.36314" lon="6.58505">
        <ele>1757.952385</ele>
        <time>2011-03-01T09:57:50Z</time>
      </trkpt>
      <trkpt lat="45.36319" lon="6.58507">
        <ele>1758.087357</ele>
        <time>2011-03-01T09:57:55Z</time>
      </trkpt>
      <trkpt lat="45.36326" lon="6.58507">
        <ele>1758.786363</ele>
        <time>2011-03-01T09:58:00Z</time>
      </trkpt>
      <trkpt lat="45.36331" lon="6.58506">
        <ele>1761.579298</ele>
        <time>2011-03-01T09:58:05Z</time>
      </trkpt>
      <trkpt lat="45.36337" lon="6.58506">
        <ele>1762.34529</ele>
        <time>2011-03-01T09:58:10Z</time>
      </trkpt>
      <trkpt lat="45.36342" lon="6.58507">
        <ele>1762.39971</ele>
        <time>2011-03-01T09:58:15Z</time>
      </trkpt>
      <trkpt lat="45.36346" lon="6.58508">
        <ele>1761.03098</ele>
        <time>2011-03-01T09:58:20Z</time>
      </trkpt>
      <trkpt lat="45.3635" lon="6.58509">
        <ele>1763.273503</ele>
        <time>2011-03-01T09:58:25Z</time>
      </trkpt>
      <trkpt lat="45.36356" lon="6.58511">
        <ele>1764.12009</ele>
        <time>2011-03-01T09:58:30Z</time>
      </trkpt>
      <trkpt lat="45.36361" lon="6.58514">
        <ele>1765.047258</ele>
        <time>2011-03-01T09:58:35Z</time>
      </trkpt>
      <trkpt lat="45.36367" lon="6.58519">
        <ele>1765.357039</ele>
        <time>2011-03-01T09:58:40Z</time>
      </trkpt>
      <trkpt lat="45.36372" lon="6.58522">
        <ele>1765.57264</ele>
        <time>2011-03-01T09:58:45Z</time>
      </trkpt>
      <trkpt lat="45.36379" lon="6.58526">
        <ele>1765.184471</ele>
        <time>2011-03-01T09:58:50Z</time>
      </trkpt>
      <trkpt lat="45.36383" lon="6.5853">
        <ele>1764.688503</ele>
        <time>2011-03-01T09:58:55Z</time>
      </trkpt>
      <trkpt lat="45.36389" lon="6.58533">
        <ele>1764.206157</ele>
        <time>2011-03-01T09:59:00Z</time>
      </trkpt>
      <trkpt lat="45.36394" lon="6.58536">
        <ele>1765.831332</ele>
        <time>2011-03-01T09:59:05Z</time>
      </trkpt>
      <trkpt lat="45.36399" lon="6.58538">
        <ele>1765.268423</ele>
        <time>2011-03-01T09:59:10Z</time>
      </trkpt>
      <trkpt lat="45.36406" lon="6.58542">
        <ele>1764.880296</ele>
        <time>2011-03-01T09:59:15Z</time>
      </trkpt>
      <trkpt lat="45.36412" lon="6.58543">
        <ele>1763.538862</ele>
        <time>2011-03-01T09:59:20Z</time>
      </trkpt>
      <trkpt lat="45.36417" lon="6.58547">
        <ele>1766.654189</ele>
        <time>2011-03-01T09:59:25Z</time>
      </trkpt>
      <trkpt lat="45.36423" lon="6.58552">
        <ele>1766.252464</ele>
        <time>2011-03-01T09:59:30Z</time>
      </trkpt>
      <trkpt lat="45.36426" lon="6.58553">
        <ele>1769.19302</ele>
        <time>2011-03-01T09:59:35Z</time>
      </trkpt>
      <trkpt lat="45.3643" lon="6.58554">
        <ele>1770.643451</ele>
        <time>2011-03-01T09:59:40Z</time>
      </trkpt>
      <trkpt lat="45.36436" lon="6.58557">
        <ele>1768.053656</ele>
        <time>2011-03-01T09:59:45Z</time>
      </trkpt>
      <trkpt lat="45.36443" lon="6.58559">
        <ele>1767.504429</ele>
        <time>2011-03-01T09:59:50Z</time>
      </trkpt>
      <trkpt lat="45.3645" lon="6.5856">
        <ele>1765.465084</ele>
        <time>2011-03-01T09:59:55Z</time>
      </trkpt>
      <trkpt lat="45.36457" lon="6.58561">
        <ele>1765.533255</ele>
        <time>2011-03-01T10:00:00Z</time>
      </trkpt>
      <trkpt lat="45.36464" lon="6.58562">
        <ele>1764.205521</ele>
        <time>2011-03-01T10:00:05Z</time>
      </trkpt>
      <trkpt lat="45.36469" lon="6.58557">
        <ele>1764.635712</ele>
        <time>2011-03-01T10:00:10Z</time>
      </trkpt>
      <trkpt lat="45.36475" lon="6.58557">
        <ele>1763.911733</ele>
        <time>2011-03-01T10:00:15Z</time>
      </trkpt>
      <trkpt lat="45.3648" lon="6.58557">
        <ele>1765.375841</ele>
        <time>2011-03-01T10:00:20Z</time>
      </trkpt>
      <trkpt lat="45.36487" lon="6.58558">
        <ele>1764.048141</ele>
        <time>2011-03-01T10:00:25Z</time>
      </trkpt>
      <trkpt lat="45.36494" lon="6.58561">
        <ele>1762.787386</ele>
        <time>2011-03-01T10:00:30Z</time>
      </trkpt>
      <trkpt lat="45.365" lon="6.58559">
        <ele>1763.392405</ele>
        <time>2011-03-01T10:00:35Z</time>
      </trkpt>
      <trkpt lat="45.36504" lon="6.58555">
        <ele>1766.010707</ele>
        <time>2011-03-01T10:00:40Z</time>
      </trkpt>
      <trkpt lat="45.36508" lon="6.58553">
        <ele>1766.602091</ele>
        <time>2011-03-01T10:00:45Z</time>
      </trkpt>
      <trkpt lat="45.36515" lon="6.58552">
        <ele>1765.180206</ele>
        <time>2011-03-01T10:00:50Z</time>
      </trkpt>
      <trkpt lat="45.36517" lon="6.5855">
        <ele>1769.274997</ele>
        <time>2011-03-01T10:00:55Z</time>
      </trkpt>
      <trkpt lat="45.36523" lon="6.58551">
        <ele>1767.222101</ele>
        <time>2011-03-01T10:01:00Z</time>
      </trkpt>
      <trkpt lat="45.36531" lon="6.58549">
        <ele>1765.733311</ele>
        <time>2011-03-01T10:01:05Z</time>
      </trkpt>
      <trkpt lat="45.36535" lon="6.58547">
        <ele>1767.734269</ele>
        <time>2011-03-01T10:01:10Z</time>
      </trkpt>
      <trkpt lat="45.36541" lon="6.5855">
        <ele>1768.661641</ele>
        <time>2011-03-01T10:01:15Z</time>
      </trkpt>
      <trkpt lat="45.36547" lon="6.58548">
        <ele>1768.56877</ele>
        <time>2011-03-01T10:01:20Z</time>
      </trkpt>
      <trkpt lat="45.36554" lon="6.5855">
        <ele>1768.717635</ele>
        <time>2011-03-01T10:01:25Z</time>
      </trkpt>
      <trkpt lat="45.3656" lon="6.58554">
        <ele>1765.430042</ele>
        <time>2011-03-01T10:01:30Z</time>
      </trkpt>
      <trkpt lat="45.36567" lon="6.58555">
        <ele>1764.800404</ele>
        <time>2011-03-01T10:01:35Z</time>
      </trkpt>
      <trkpt lat="45.36574" lon="6.58558">
        <ele>1762.210774</ele>
        <time>2011-03-01T10:01:40Z</time>
      </trkpt>
      <trkpt lat="45.36579" lon="6.58559">
        <ele>1763.67498</ele>
        <time>2011-03-01T10:01:45Z</time>
      </trkpt>
      <trkpt lat="45.36581" lon="6.58556">
        <ele>1767.058195</ele>
        <time>2011-03-01T10:01:50Z</time>
      </trkpt>
      <trkpt lat="45.36586" lon="6.58558">
        <ele>1766.495494</ele>
        <time>2011-03-01T10:01:55Z</time>
      </trkpt>
      <trkpt lat="45.36593" lon="6.5856">
        <ele>1765.946468</ele>
        <time>2011-03-01T10:02:00Z</time>
      </trkpt>
      <trkpt lat="45.366" lon="6.58561">
        <ele>1764.605266</ele>
        <time>2011-03-01T10:02:05Z</time>
      </trkpt>
      <trkpt lat="45.36606" lon="6.58562">
        <ele>1764.67362</ele>
        <time>2011-03-01T10:02:10Z</time>
      </trkpt>
      <trkpt lat="45.36612" lon="6.58563">
        <ele>1762.620823</ele>
        <time>2011-03-01T10:02:15Z</time>
      </trkpt>
      <trkpt lat="45.36616" lon="6.58563">
        <ele>1763.373454</ele>
        <time>2011-03-01T10:02:20Z</time>
      </trkpt>
      <trkpt lat="45.36623" lon="6.58568">
        <ele>1760.166526</ele>
        <time>2011-03-01T10:02:25Z</time>
      </trkpt>
      <trkpt lat="45.36633" lon="6.5857">
        <ele>1754.63775</ele>
        <time>2011-03-01T10:02:30Z</time>
      </trkpt>
      <trkpt lat="45.36642" lon="6.58573">
        <ele>1749.17589</ele>
        <time>2011-03-01T10:02:35Z</time>
      </trkpt>
      <trkpt lat="45.36644" lon="6.58569">
        <ele>1748.249906</ele>
        <time>2011-03-01T10:02:40Z</time>
      </trkpt>
      <trkpt lat="45.36652" lon="6.58567">
        <ele>1741.754141</ele>
        <time>2011-03-01T10:02:45Z</time>
      </trkpt>
      <trkpt lat="45.36658" lon="6.58567">
        <ele>1738.211271</ele>
        <time>2011-03-01T10:02:50Z</time>
      </trkpt>
      <trkpt lat="45.36667" lon="6.5857">
        <ele>1729.930357</ele>
        <time>2011-03-01T10:02:55Z</time>
      </trkpt>
      <trkpt lat="45.36673" lon="6.58572">
        <ele>1728.669823</ele>
        <time>2011-03-01T10:03:00Z</time>
      </trkpt>
      <trkpt lat="45.36679" lon="6.58567">
        <ele>1725.5026</ele>
        <time>2011-03-01T10:03:05Z</time>
      </trkpt>
      <trkpt lat="45.36685" lon="6.58564">
        <ele>1723.208155</ele>
        <time>2011-03-01T10:03:10Z</time>
      </trkpt>
      <trkpt lat="45.36699" lon="6.58554">
        <ele>1724.741074</ele>
        <time>2011-03-01T10:03:15Z</time>
      </trkpt>
      <trkpt lat="45.36701" lon="6.5855">
        <ele>1727.345838</ele>
        <time>2011-03-01T10:03:20Z</time>
      </trkpt>
      <trkpt lat="45.36706" lon="6.58544">
        <ele>1728.393605</ele>
        <time>2011-03-01T10:03:25Z</time>
      </trkpt>
      <trkpt lat="45.36715" lon="6.58543">
        <ele>1721.280595</ele>
        <time>2011-03-01T10:03:30Z</time>
      </trkpt>
      <trkpt lat="45.36719" lon="6.58542">
        <ele>1723.36229</ele>
        <time>2011-03-01T10:03:35Z</time>
      </trkpt>
      <trkpt lat="45.36726" lon="6.58538">
        <ele>1719.591479</ele>
        <time>2011-03-01T10:03:40Z</time>
      </trkpt>
      <trkpt lat="45.36732" lon="6.58533">
        <ele>1717.833878</ele>
        <time>2011-03-01T10:03:45Z</time>
      </trkpt>
      <trkpt lat="45.36734" lon="6.58531">
        <ele>1721.297732</ele>
        <time>2011-03-01T10:03:50Z</time>
      </trkpt>
      <trkpt lat="45.36741" lon="6.58522">
        <ele>1718.614213</ele>
        <time>2011-03-01T10:03:55Z</time>
      </trkpt>
      <trkpt lat="45.36746" lon="6.58515">
        <ele>1719.58146</ele>
        <time>2011-03-01T10:04:00Z</time>
      </trkpt>
      <trkpt lat="45.36745" lon="6.58502">
        <ele>1727.299935</ele>
        <time>2011-03-01T10:04:05Z</time>
      </trkpt>
      <trkpt lat="45.36747" lon="6.58496">
        <ele>1730.44153</ele>
        <time>2011-03-01T10:04:10Z</time>
      </trkpt>
      <trkpt lat="45.36752" lon="6.58495">
        <ele>1733.932808</ele>
        <time>2011-03-01T10:04:15Z</time>
      </trkpt>
      <trkpt lat="45.36758" lon="6.58494">
        <ele>1736.028247</ele>
        <time>2011-03-01T10:04:20Z</time>
      </trkpt>
      <trkpt lat="45.36764" lon="6.58496">
        <ele>1734.767808</ele>
        <time>2011-03-01T10:04:25Z</time>
      </trkpt>
      <trkpt lat="45.3677" lon="6.58494">
        <ele>1736.782695</ele>
        <time>2011-03-01T10:04:30Z</time>
      </trkpt>
      <trkpt lat="45.36778" lon="6.5849">
        <ele>1737.254334</ele>
        <time>2011-03-01T10:04:35Z</time>
      </trkpt>
      <trkpt lat="45.36785" lon="6.58488">
        <ele>1737.873404</ele>
        <time>2011-03-01T10:04:40Z</time>
      </trkpt>
      <trkpt lat="45.36792" lon="6.58484">
        <ele>1737.619722</ele>
        <time>2011-03-01T10:04:45Z</time>
      </trkpt>
      <trkpt lat="45.36795" lon="6.58478">
        <ele>1735.834785</ele>
        <time>2011-03-01T10:04:50Z</time>
      </trkpt>
      <trkpt lat="45.36802" lon="6.58479">
        <ele>1734.507542</ele>
        <time>2011-03-01T10:04:55Z</time>
      </trkpt>
      <trkpt lat="45.36807" lon="6.58474">
        <ele>1736.34763</ele>
        <time>2011-03-01T10:05:00Z</time>
      </trkpt>
      <trkpt lat="45.3681" lon="6.5847">
        <ele>1737.542931</ele>
        <time>2011-03-01T10:05:05Z</time>
      </trkpt>
      <trkpt lat="45.36816" lon="6.58468">
        <ele>1736.738776</ele>
        <time>2011-03-01T10:05:10Z</time>
      </trkpt>
      <trkpt lat="45.36821" lon="6.58468">
        <ele>1738.122654</ele>
        <time>2011-03-01T10:05:15Z</time>
      </trkpt>
      <trkpt lat="45.36826" lon="6.58466">
        <ele>1738.714337</ele>
        <time>2011-03-01T10:05:20Z</time>
      </trkpt>
      <trkpt lat="45.3683" lon="6.58463">
        <ele>1740.715575</ele>
        <time>2011-03-01T10:05:25Z</time>
      </trkpt>
      <trkpt lat="45.36834" lon="6.58461">
        <ele>1740.59563</ele>
        <time>2011-03-01T10:05:30Z</time>
      </trkpt>
      <trkpt lat="45.36843" lon="6.58462">
        <ele>1734.972962</ele>
        <time>2011-03-01T10:05:35Z</time>
      </trkpt>
      <trkpt lat="45.36853" lon="6.58456">
        <ele>1736.787455</ele>
        <time>2011-03-01T10:05:40Z</time>
      </trkpt>
      <trkpt lat="45.36856" lon="6.58455">
        <ele>1735.324807</ele>
        <time>2011-03-01T10:05:49Z</time>
      </trkpt>
      <trkpt lat="45.36861" lon="6.5845">
        <ele>1734.976937</ele>
        <time>2011-03-01T10:05:54Z</time>
      </trkpt>
      <trkpt lat="45.36865" lon="6.58448">
        <ele>1730.628368</ele>
        <time>2011-03-01T10:05:59Z</time>
      </trkpt>
      <trkpt lat="45.3687" lon="6.58444">
        <ele>1726.830328</ele>
        <time>2011-03-01T10:06:04Z</time>
      </trkpt>
      <trkpt lat="45.36877" lon="6.58442">
        <ele>1725.342076</ele>
        <time>2011-03-01T10:06:09Z</time>
      </trkpt>
      <trkpt lat="45.36882" lon="6.58438">
        <ele>1725.772699</ele>
        <time>2011-03-01T10:06:14Z</time>
      </trkpt>
      <trkpt lat="45.36886" lon="6.58438">
        <ele>1728.633014</ele>
        <time>2011-03-01T10:06:19Z</time>
      </trkpt>
      <trkpt lat="45.3689" lon="6.58439">
        <ele>1731.573889</ele>
        <time>2011-03-01T10:06:24Z</time>
      </trkpt>
      <trkpt lat="45.36894" lon="6.58434">
        <ele>1734.111979</ele>
        <time>2011-03-01T10:06:29Z</time>
      </trkpt>
      <trkpt lat="45.36897" lon="6.58423">
        <ele>1742.663956</ele>
        <time>2011-03-01T10:06:34Z</time>
      </trkpt>
      <trkpt lat="45.36904" lon="6.58414">
        <ele>1739.967029</ele>
        <time>2011-03-01T10:06:39Z</time>
      </trkpt>
      <trkpt lat="45.3691" lon="6.58414">
        <ele>1737.833995</ele>
        <time>2011-03-01T10:06:44Z</time>
      </trkpt>
      <trkpt lat="45.36917" lon="6.58411">
        <ele>1733.446153</ele>
        <time>2011-03-01T10:06:49Z</time>
      </trkpt>
      <trkpt lat="45.36923" lon="6.58411">
        <ele>1726.372834</ele>
        <time>2011-03-01T10:06:54Z</time>
      </trkpt>
      <trkpt lat="45.36927" lon="6.58408">
        <ele>1724.064965</ele>
        <time>2011-03-01T10:06:59Z</time>
      </trkpt>
      <trkpt lat="45.36932" lon="6.58407">
        <ele>1724.737309</ele>
        <time>2011-03-01T10:07:04Z</time>
      </trkpt>
      <trkpt lat="45.36932" lon="6.58402">
        <ele>1728.643748</ele>
        <time>2011-03-01T10:07:09Z</time>
      </trkpt>
      <trkpt lat="45.36938" lon="6.58396">
        <ele>1727.598088</ele>
        <time>2011-03-01T10:07:14Z</time>
      </trkpt>
      <trkpt lat="45.36945" lon="6.58391">
        <ele>1728.67364</ele>
        <time>2011-03-01T10:07:19Z</time>
      </trkpt>
      <trkpt lat="45.36953" lon="6.58388">
        <ele>1728.514508</ele>
        <time>2011-03-01T10:07:24Z</time>
      </trkpt>
      <trkpt lat="45.36956" lon="6.58376">
        <ele>1736.274374</ele>
        <time>2011-03-01T10:07:29Z</time>
      </trkpt>
      <trkpt lat="45.36966" lon="6.58372">
        <ele>1732.531473</ele>
        <time>2011-03-01T10:07:34Z</time>
      </trkpt>
      <trkpt lat="45.36972" lon="6.58368">
        <ele>1730.86852</ele>
        <time>2011-03-01T10:07:39Z</time>
      </trkpt>
      <trkpt lat="45.36974" lon="6.58353">
        <ele>1740.561016</ele>
        <time>2011-03-01T10:07:44Z</time>
      </trkpt>
      <trkpt lat="45.36978" lon="6.58349">
        <ele>1742.481864</ele>
        <time>2011-03-01T10:07:49Z</time>
      </trkpt>
      <trkpt lat="45.36985" lon="6.58349">
        <ele>1736.831919</ele>
        <time>2011-03-01T10:07:54Z</time>
      </trkpt>
      <trkpt lat="45.36993" lon="6.58351">
        <ele>1729.168846</ele>
        <time>2011-03-01T10:07:59Z</time>
      </trkpt>
      <trkpt lat="45.36996" lon="6.58347">
        <ele>1734.592943</ele>
        <time>2011-03-01T10:08:04Z</time>
      </trkpt>
      <trkpt lat="45.36998" lon="6.58346">
        <ele>1737.359029</ele>
        <time>2011-03-01T10:08:09Z</time>
      </trkpt>
      <trkpt lat="45.37007" lon="6.5835">
        <ele>1733.387829</ele>
        <time>2011-03-01T10:08:14Z</time>
      </trkpt>
      <trkpt lat="45.3701" lon="6.58336">
        <ele>1742.476779</ele>
        <time>2011-03-01T10:08:19Z</time>
      </trkpt>
      <trkpt lat="45.37017" lon="6.5832">
        <ele>1737.887266</ele>
        <time>2011-03-01T10:08:24Z</time>
      </trkpt>
      <trkpt lat="45.37017" lon="6.58315">
        <ele>1741.874297</ele>
        <time>2011-03-01T10:08:30Z</time>
      </trkpt>
      <trkpt lat="45.37017" lon="6.58306">
        <ele>1744.115849</ele>
        <time>2011-03-01T10:08:35Z</time>
      </trkpt>
      <trkpt lat="45.3702" lon="6.58297">
        <ele>1740.679971</ele>
        <time>2011-03-01T10:08:40Z</time>
      </trkpt>
      <trkpt lat="45.3702" lon="6.58289">
        <ele>1737.37764</ele>
        <time>2011-03-01T10:08:45Z</time>
      </trkpt>
      <trkpt lat="45.37023" lon="6.58286">
        <ele>1733.646573</ele>
        <time>2011-03-01T10:08:50Z</time>
      </trkpt>
      <trkpt lat="45.37024" lon="6.58274">
        <ele>1737.150401</ele>
        <time>2011-03-01T10:08:55Z</time>
      </trkpt>
      <trkpt lat="45.3703" lon="6.58273">
        <ele>1744.884372</ele>
        <time>2011-03-01T10:09:00Z</time>
      </trkpt>
      <trkpt lat="45.37031" lon="6.5827">
        <ele>1749.663619</ele>
        <time>2011-03-01T10:09:05Z</time>
      </trkpt>
      <trkpt lat="45.37035" lon="6.58276">
        <ele>1750.040851</ele>
        <time>2011-03-01T10:09:10Z</time>
      </trkpt>
      <trkpt lat="45.37034" lon="6.58275">
        <ele>1752.13452</ele>
        <time>2011-03-01T10:09:16Z</time>
      </trkpt>
      <trkpt lat="45.37034" lon="6.58271">
        <ele>1752.604576</ele>
        <time>2011-03-01T10:09:25Z</time>
      </trkpt>
      <trkpt lat="45.37035" lon="6.58268">
        <ele>1750.255529</ele>
        <time>2011-03-01T10:09:30Z</time>
      </trkpt>
      <trkpt lat="45.37037" lon="6.58263">
        <ele>1747.12806</ele>
        <time>2011-03-01T10:09:35Z</time>
      </trkpt>
      <trkpt lat="45.3704" lon="6.58256">
        <ele>1743.8533</ele>
        <time>2011-03-01T10:09:40Z</time>
      </trkpt>
      <trkpt lat="45.37045" lon="6.58245">
        <ele>1736.7532</ele>
        <time>2011-03-01T10:09:45Z</time>
      </trkpt>
      <trkpt lat="45.37048" lon="6.58245">
        <ele>1735.371198</ele>
        <time>2011-03-01T10:09:50Z</time>
      </trkpt>
      <trkpt lat="45.37052" lon="6.58249">
        <ele>1736.365788</ele>
        <time>2011-03-01T10:09:56Z</time>
      </trkpt>
      <trkpt lat="45.37056" lon="6.58245">
        <ele>1737.494544</ele>
        <time>2011-03-01T10:10:01Z</time>
      </trkpt>
      <trkpt lat="45.3706" lon="6.58243">
        <ele>1741.684005</ele>
        <time>2011-03-01T10:10:06Z</time>
      </trkpt>
      <trkpt lat="45.37064" lon="6.58245">
        <ele>1743.927093</ele>
        <time>2011-03-01T10:10:11Z</time>
      </trkpt>
      <trkpt lat="45.37076" lon="6.58233">
        <ele>1733.298417</ele>
        <time>2011-03-01T10:10:16Z</time>
      </trkpt>
      <trkpt lat="45.37089" lon="6.58225">
        <ele>1726.442144</ele>
        <time>2011-03-01T10:10:21Z</time>
      </trkpt>
      <trkpt lat="45.37093" lon="6.58218">
        <ele>1728.819438</ele>
        <time>2011-03-01T10:10:26Z</time>
      </trkpt>
      <trkpt lat="45.37098" lon="6.58206">
        <ele>1731.666831</ele>
        <time>2011-03-01T10:10:31Z</time>
      </trkpt>
      <trkpt lat="45.37104" lon="6.582">
        <ele>1729.131394</ele>
        <time>2011-03-01T10:10:36Z</time>
      </trkpt>
      <trkpt lat="45.37106" lon="6.58189">
        <ele>1731.320091</ele>
        <time>2011-03-01T10:10:41Z</time>
      </trkpt>
      <trkpt lat="45.37108" lon="6.58176">
        <ele>1736.864741</ele>
        <time>2011-03-01T10:10:46Z</time>
      </trkpt>
      <trkpt lat="45.37109" lon="6.5817">
        <ele>1735.764248</ele>
        <time>2011-03-01T10:10:51Z</time>
      </trkpt>
      <trkpt lat="45.37111" lon="6.58164">
        <ele>1734.67755</ele>
        <time>2011-03-01T10:10:56Z</time>
      </trkpt>
      <trkpt lat="45.37113" lon="6.58155">
        <ele>1734.127696</ele>
        <time>2011-03-01T10:11:01Z</time>
      </trkpt>
      <trkpt lat="45.37114" lon="6.58146">
        <ele>1734.987405</ele>
        <time>2011-03-01T10:11:06Z</time>
      </trkpt>
      <trkpt lat="45.37115" lon="6.58144">
        <ele>1738.357148</ele>
        <time>2011-03-01T10:11:11Z</time>
      </trkpt>
      <trkpt lat="45.37119" lon="6.58143">
        <ele>1738.318004</ele>
        <time>2011-03-01T10:11:16Z</time>
      </trkpt>
      <trkpt lat="45.37135" lon="6.5815">
        <ele>1724.643343</ele>
        <time>2011-03-01T10:11:21Z</time>
      </trkpt>
      <trkpt lat="45.37135" lon="6.58148">
        <ele>1727.381931</ele>
        <time>2011-03-01T10:11:26Z</time>
      </trkpt>
      <trkpt lat="45.37136" lon="6.58145">
        <ele>1732.161231</ele>
        <time>2011-03-01T10:11:31Z</time>
      </trkpt>
      <trkpt lat="45.37145" lon="6.58135">
        <ele>1727.290692</ele>
        <time>2011-03-01T10:11:36Z</time>
      </trkpt>
      <trkpt lat="45.3715" lon="6.58132">
        <ele>1725.694782</ele>
        <time>2011-03-01T10:11:41Z</time>
      </trkpt>
      <trkpt lat="45.37154" lon="6.58129">
        <ele>1725.494632</ele>
        <time>2011-03-01T10:11:46Z</time>
      </trkpt>
      <trkpt lat="45.37159" lon="6.58122">
        <ele>1725.066742</ele>
        <time>2011-03-01T10:11:51Z</time>
      </trkpt>
      <trkpt lat="45.37161" lon="6.58115">
        <ele>1731.725741</ele>
        <time>2011-03-01T10:11:56Z</time>
      </trkpt>
      <trkpt lat="45.3717" lon="6.58118">
        <ele>1727.674213</ele>
        <time>2011-03-01T10:12:01Z</time>
      </trkpt>
      <trkpt lat="45.37177" lon="6.58112">
        <ele>1728.052346</ele>
        <time>2011-03-01T10:12:06Z</time>
      </trkpt>
      <trkpt lat="45.3718" lon="6.58106">
        <ele>1729.086945</ele>
        <time>2011-03-01T10:12:11Z</time>
      </trkpt>
      <trkpt lat="45.37183" lon="6.58102">
        <ele>1734.511238</ele>
        <time>2011-03-01T10:12:16Z</time>
      </trkpt>
      <trkpt lat="45.37188" lon="6.58097">
        <ele>1735.653975</ele>
        <time>2011-03-01T10:12:21Z</time>
      </trkpt>
      <trkpt lat="45.37193" lon="6.58094">
        <ele>1736.87723</ele>
        <time>2011-03-01T10:12:26Z</time>
      </trkpt>
      <trkpt lat="45.37198" lon="6.58091">
        <ele>1738.878875</ele>
        <time>2011-03-01T10:12:31Z</time>
      </trkpt>
      <trkpt lat="45.37207" lon="6.58093">
        <ele>1736.156447</ele>
        <time>2011-03-01T10:12:36Z</time>
      </trkpt>
      <trkpt lat="45.37213" lon="6.5809">
        <ele>1733.164874</ele>
        <time>2011-03-01T10:12:41Z</time>
      </trkpt>
      <trkpt lat="45.37215" lon="6.58088">
        <ele>1732.319798</ele>
        <time>2011-03-01T10:12:46Z</time>
      </trkpt>
      <trkpt lat="45.37218" lon="6.58085">
        <ele>1737.112941</ele>
        <time>2011-03-01T10:12:51Z</time>
      </trkpt>
      <trkpt lat="45.37224" lon="6.58081">
        <ele>1736.148298</ele>
        <time>2011-03-01T10:12:56Z</time>
      </trkpt>
      <trkpt lat="45.37227" lon="6.58082">
        <ele>1739.787236</ele>
        <time>2011-03-01T10:13:01Z</time>
      </trkpt>
      <trkpt lat="45.37236" lon="6.58088">
        <ele>1737.400716</ele>
        <time>2011-03-01T10:13:06Z</time>
      </trkpt>
      <trkpt lat="45.37238" lon="6.5808">
        <ele>1746.798361</ele>
        <time>2011-03-01T10:13:11Z</time>
      </trkpt>
      <trkpt lat="45.37243" lon="6.58082">
        <ele>1745.5246</ele>
        <time>2011-03-01T10:13:16Z</time>
      </trkpt>
      <trkpt lat="45.37251" lon="6.58086">
        <ele>1742.949444</ele>
        <time>2011-03-01T10:13:21Z</time>
      </trkpt>
      <trkpt lat="45.37264" lon="6.58083">
        <ele>1732.200911</ele>
        <time>2011-03-01T10:13:26Z</time>
      </trkpt>
      <trkpt lat="45.37261" lon="6.58077">
        <ele>1735.368197</ele>
        <time>2011-03-01T10:13:31Z</time>
      </trkpt>
      <trkpt lat="45.37262" lon="6.5808">
        <ele>1733.421795</ele>
        <time>2011-03-01T10:13:48Z</time>
      </trkpt>
      <trkpt lat="45.37264" lon="6.58081">
        <ele>1732.039893</ele>
        <time>2011-03-01T10:14:19Z</time>
      </trkpt>
      <trkpt lat="45.37272" lon="6.58084">
        <ele>1730.874323</ele>
        <time>2011-03-01T10:14:24Z</time>
      </trkpt>
      <trkpt lat="45.37279" lon="6.58087">
        <ele>1728.2187</ele>
        <time>2011-03-01T10:14:29Z</time>
      </trkpt>
      <trkpt lat="45.37284" lon="6.58087">
        <ele>1724.743223</ele>
        <time>2011-03-01T10:14:34Z</time>
      </trkpt>
      <trkpt lat="45.37288" lon="6.58085">
        <ele>1728.154504</ele>
        <time>2011-03-01T10:14:39Z</time>
      </trkpt>
      <trkpt lat="45.37285" lon="6.58086">
        <ele>1726.0861</ele>
        <time>2011-03-01T10:14:44Z</time>
      </trkpt>
      <trkpt lat="45.37287" lon="6.58084">
        <ele>1726.650608</ele>
        <time>2011-03-01T10:14:49Z</time>
      </trkpt>
      <trkpt lat="45.3729" lon="6.58084">
        <ele>1727.389967</ele>
        <time>2011-03-01T10:15:03Z</time>
      </trkpt>
      <trkpt lat="45.37296" lon="6.58083">
        <ele>1727.364794</ele>
        <time>2011-03-01T10:15:08Z</time>
      </trkpt>
      <trkpt lat="45.37299" lon="6.58083">
        <ele>1732.332822</ele>
        <time>2011-03-01T10:15:13Z</time>
      </trkpt>
      <trkpt lat="45.37301" lon="6.58078">
        <ele>1739.784093</ele>
        <time>2011-03-01T10:15:18Z</time>
      </trkpt>
      <trkpt lat="45.37303" lon="6.58077">
        <ele>1741.140812</ele>
        <time>2011-03-01T10:15:29Z</time>
      </trkpt>
      <trkpt lat="45.37306" lon="6.58078">
        <ele>1739.839438</ele>
        <time>2011-03-01T10:15:38Z</time>
      </trkpt>
      <trkpt lat="45.37308" lon="6.58081">
        <ele>1740.725987</ele>
        <time>2011-03-01T10:15:45Z</time>
      </trkpt>
      <trkpt lat="45.37309" lon="6.58087">
        <ele>1741.142368</ele>
        <time>2011-03-01T10:15:50Z</time>
      </trkpt>
      <trkpt lat="45.37311" lon="6.58091">
        <ele>1741.411571</ele>
        <time>2011-03-01T10:15:55Z</time>
      </trkpt>
      <trkpt lat="45.37316" lon="6.58095">
        <ele>1742.339643</ele>
        <time>2011-03-01T10:16:00Z</time>
      </trkpt>
      <trkpt lat="45.37324" lon="6.58102">
        <ele>1745.644346</ele>
        <time>2011-03-01T10:16:05Z</time>
      </trkpt>
      <trkpt lat="45.37328" lon="6.58106">
        <ele>1748.048657</ele>
        <time>2011-03-01T10:16:10Z</time>
      </trkpt>
      <trkpt lat="45.37333" lon="6.58111">
        <ele>1749.83563</ele>
        <time>2011-03-01T10:16:15Z</time>
      </trkpt>
      <trkpt lat="45.37341" lon="6.58109">
        <ele>1746.160203</ele>
        <time>2011-03-01T10:16:20Z</time>
      </trkpt>
      <trkpt lat="45.3735" lon="6.58113">
        <ele>1739.370385</ele>
        <time>2011-03-01T10:16:25Z</time>
      </trkpt>
      <trkpt lat="45.37358" lon="6.58114">
        <ele>1738.043926</ele>
        <time>2011-03-01T10:16:30Z</time>
      </trkpt>
      <trkpt lat="45.37365" lon="6.58115">
        <ele>1736.717479</ele>
        <time>2011-03-01T10:16:35Z</time>
      </trkpt>
      <trkpt lat="45.37374" lon="6.58112">
        <ele>1733.042104</ele>
        <time>2011-03-01T10:16:40Z</time>
      </trkpt>
      <trkpt lat="45.37382" lon="6.58114">
        <ele>1732.427386</ele>
        <time>2011-03-01T10:16:45Z</time>
      </trkpt>
      <trkpt lat="45.37386" lon="6.58111">
        <ele>1733.717488</ele>
        <time>2011-03-01T10:16:50Z</time>
      </trkpt>
      <trkpt lat="45.37391" lon="6.5811">
        <ele>1730.792789</ele>
        <time>2011-03-01T10:16:55Z</time>
      </trkpt>
      <trkpt lat="45.37398" lon="6.58103">
        <ele>1736.809458</ele>
        <time>2011-03-01T10:17:00Z</time>
      </trkpt>
      <trkpt lat="45.37404" lon="6.58106">
        <ele>1730.609348</ele>
        <time>2011-03-01T10:17:05Z</time>
      </trkpt>
      <trkpt lat="45.3741" lon="6.58112">
        <ele>1728.181591</ele>
        <time>2011-03-01T10:17:10Z</time>
      </trkpt>
      <trkpt lat="45.37416" lon="6.58113">
        <ele>1726.129647</ele>
        <time>2011-03-01T10:17:15Z</time>
      </trkpt>
      <trkpt lat="45.37419" lon="6.58112">
        <ele>1726.788576</ele>
        <time>2011-03-01T10:17:21Z</time>
      </trkpt>
      <trkpt lat="45.37425" lon="6.58112">
        <ele>1728.965304</ele>
        <time>2011-03-01T10:17:26Z</time>
      </trkpt>
      <trkpt lat="45.37431" lon="6.58113">
        <ele>1729.034641</ele>
        <time>2011-03-01T10:17:31Z</time>
      </trkpt>
      <trkpt lat="45.37438" lon="6.58112">
        <ele>1723.304749</ele>
        <time>2011-03-01T10:17:36Z</time>
      </trkpt>
      <trkpt lat="45.37447" lon="6.58111">
        <ele>1717.60261</ele>
        <time>2011-03-01T10:17:41Z</time>
      </trkpt>
      <trkpt lat="45.37454" lon="6.58109">
        <ele>1708.986994</ele>
        <time>2011-03-01T10:17:46Z</time>
      </trkpt>
      <trkpt lat="45.3746" lon="6.58109">
        <ele>1706.854589</ele>
        <time>2011-03-01T10:17:51Z</time>
      </trkpt>
      <trkpt lat="45.37467" lon="6.58107">
        <ele>1705.353397</ele>
        <time>2011-03-01T10:17:56Z</time>
      </trkpt>
      <trkpt lat="45.37473" lon="6.58105">
        <ele>1705.959606</ele>
        <time>2011-03-01T10:18:01Z</time>
      </trkpt>
      <trkpt lat="45.37478" lon="6.58103">
        <ele>1708.673213</ele>
        <time>2011-03-01T10:18:06Z</time>
      </trkpt>
      <trkpt lat="45.37481" lon="6.58098">
        <ele>1711.909766</ele>
        <time>2011-03-01T10:18:11Z</time>
      </trkpt>
      <trkpt lat="45.37487" lon="6.58096">
        <ele>1708.28733</ele>
        <time>2011-03-01T10:18:16Z</time>
      </trkpt>
      <trkpt lat="45.37492" lon="6.58096">
        <ele>1702.624136</ele>
        <time>2011-03-01T10:18:21Z</time>
      </trkpt>
      <trkpt lat="45.37496" lon="6.58091">
        <ele>1705.860702</ele>
        <time>2011-03-01T10:18:26Z</time>
      </trkpt>
      <trkpt lat="45.37498" lon="6.58089">
        <ele>1703.606183</ele>
        <time>2011-03-01T10:18:31Z</time>
      </trkpt>
      <trkpt lat="45.37503" lon="6.58084">
        <ele>1704.749253</ele>
        <time>2011-03-01T10:18:36Z</time>
      </trkpt>
      <trkpt lat="45.3751" lon="6.58081">
        <ele>1704.577168</ele>
        <time>2011-03-01T10:18:41Z</time>
      </trkpt>
      <trkpt lat="45.37515" lon="6.58076">
        <ele>1702.82064</ele>
        <time>2011-03-01T10:18:46Z</time>
      </trkpt>
      <trkpt lat="45.37521" lon="6.58072">
        <ele>1703.346406</ele>
        <time>2011-03-01T10:18:51Z</time>
      </trkpt>
      <trkpt lat="45.37524" lon="6.5807">
        <ele>1709.563119</ele>
        <time>2011-03-01T10:18:56Z</time>
      </trkpt>
      <trkpt lat="45.3753" lon="6.58067">
        <ele>1706.558064</ele>
        <time>2011-03-01T10:19:01Z</time>
      </trkpt>
      <trkpt lat="45.37536" lon="6.58067">
        <ele>1705.217973</ele>
        <time>2011-03-01T10:19:06Z</time>
      </trkpt>
      <trkpt lat="45.37539" lon="6.58065">
        <ele>1708.615588</ele>
        <time>2011-03-01T10:19:11Z</time>
      </trkpt>
      <trkpt lat="45.37544" lon="6.58065">
        <ele>1703.650275</ele>
        <time>2011-03-01T10:19:16Z</time>
      </trkpt>
      <trkpt lat="45.37548" lon="6.58062">
        <ele>1707.759621</ele>
        <time>2011-03-01T10:19:21Z</time>
      </trkpt>
      <trkpt lat="45.37556" lon="6.58059">
        <ele>1709.011052</ele>
        <time>2011-03-01T10:19:26Z</time>
      </trkpt>
      <trkpt lat="45.37561" lon="6.58053">
        <ele>1707.254585</ele>
        <time>2011-03-01T10:19:31Z</time>
      </trkpt>
      <trkpt lat="45.37567" lon="6.5805">
        <ele>1706.370855</ele>
        <time>2011-03-01T10:19:36Z</time>
      </trkpt>
      <trkpt lat="45.37571" lon="6.58044">
        <ele>1703.110447</ele>
        <time>2011-03-01T10:19:41Z</time>
      </trkpt>
      <trkpt lat="45.37575" lon="6.58039">
        <ele>1701.420601</ele>
        <time>2011-03-01T10:19:46Z</time>
      </trkpt>
      <trkpt lat="45.37577" lon="6.58034">
        <ele>1701.824237</ele>
        <time>2011-03-01T10:19:51Z</time>
      </trkpt>
      <trkpt lat="45.3758" lon="6.58031">
        <ele>1700.898819</ele>
        <time>2011-03-01T10:19:56Z</time>
      </trkpt>
      <trkpt lat="45.37584" lon="6.58026">
        <ele>1698.51116</ele>
        <time>2011-03-01T10:20:01Z</time>
      </trkpt>
      <trkpt lat="45.37588" lon="6.58022">
        <ele>1696.821331</ele>
        <time>2011-03-01T10:20:06Z</time>
      </trkpt>
      <trkpt lat="45.37593" lon="6.58017">
        <ele>1699.360174</ele>
        <time>2011-03-01T10:20:11Z</time>
      </trkpt>
      <trkpt lat="45.37597" lon="6.58013">
        <ele>1699.160407</ele>
        <time>2011-03-01T10:20:16Z</time>
      </trkpt>
      <trkpt lat="45.37601" lon="6.58009">
        <ele>1698.880149</ele>
        <time>2011-03-01T10:20:21Z</time>
      </trkpt>
      <trkpt lat="45.37594" lon="6.58004">
        <ele>1697.857394</ele>
        <time>2011-03-01T10:20:26Z</time>
      </trkpt>
      <trkpt lat="45.37595" lon="6.58007">
        <ele>1695.21318</ele>
        <time>2011-03-01T10:20:35Z</time>
      </trkpt>
      <trkpt lat="45.37597" lon="6.58005">
        <ele>1694.368274</ele>
        <time>2011-03-01T10:20:40Z</time>
      </trkpt>
      <trkpt lat="45.376" lon="6.58002">
        <ele>1694.154606</ele>
        <time>2011-03-01T10:20:45Z</time>
      </trkpt>
      <trkpt lat="45.37606" lon="6.57996">
        <ele>1691.700393</ele>
        <time>2011-03-01T10:20:50Z</time>
      </trkpt>
      <trkpt lat="45.37611" lon="6.57989">
        <ele>1691.273075</ele>
        <time>2011-03-01T10:20:55Z</time>
      </trkpt>
      <trkpt lat="45.37617" lon="6.57986">
        <ele>1691.798978</ele>
        <time>2011-03-01T10:21:00Z</time>
      </trkpt>
      <trkpt lat="45.37624" lon="6.57979">
        <ele>1686.445191</ele>
        <time>2011-03-01T10:21:05Z</time>
      </trkpt>
      <trkpt lat="45.37626" lon="6.57977">
        <ele>1687.009858</ele>
        <time>2011-03-01T10:21:12Z</time>
      </trkpt>
      <trkpt lat="45.37629" lon="6.57972">
        <ele>1687.42746</ele>
        <time>2011-03-01T10:21:17Z</time>
      </trkpt>
      <trkpt lat="45.37635" lon="6.57964">
        <ele>1689.738806</ele>
        <time>2011-03-01T10:21:22Z</time>
      </trkpt>
      <trkpt lat="45.3764" lon="6.57951">
        <ele>1691.808701</ele>
        <time>2011-03-01T10:21:27Z</time>
      </trkpt>
      <trkpt lat="45.37644" lon="6.57945">
        <ele>1694.96495</ele>
        <time>2011-03-01T10:21:32Z</time>
      </trkpt>
      <trkpt lat="45.37648" lon="6.57937">
        <ele>1698.04072</ele>
        <time>2011-03-01T10:21:37Z</time>
      </trkpt>
      <trkpt lat="45.37653" lon="6.57934">
        <ele>1699.976237</ele>
        <time>2011-03-01T10:21:42Z</time>
      </trkpt>
      <trkpt lat="45.37659" lon="6.57928">
        <ele>1702.448609</ele>
        <time>2011-03-01T10:21:47Z</time>
      </trkpt>
      <trkpt lat="45.3766" lon="6.57923">
        <ele>1702.140594</ele>
        <time>2011-03-01T10:21:52Z</time>
      </trkpt>
      <trkpt lat="45.37663" lon="6.57919">
        <ele>1704.034362</ele>
        <time>2011-03-01T10:21:57Z</time>
      </trkpt>
      <trkpt lat="45.37663" lon="6.57913">
        <ele>1703.631947</ele>
        <time>2011-03-01T10:22:02Z</time>
      </trkpt>
      <trkpt lat="45.37665" lon="6.5791">
        <ele>1704.196644</ele>
        <time>2011-03-01T10:22:13Z</time>
      </trkpt>
      <trkpt lat="45.37668" lon="6.57908">
        <ele>1706.184823</ele>
        <time>2011-03-01T10:22:18Z</time>
      </trkpt>
      <trkpt lat="45.37674" lon="6.57904">
        <ele>1700.280367</ele>
        <time>2011-03-01T10:22:23Z</time>
      </trkpt>
      <trkpt lat="45.37678" lon="6.57902">
        <ele>1702.282479</ele>
        <time>2011-03-01T10:22:28Z</time>
      </trkpt>
      <trkpt lat="45.37683" lon="6.579">
        <ele>1699.35811</ele>
        <time>2011-03-01T10:22:33Z</time>
      </trkpt>
      <trkpt lat="45.37689" lon="6.57897">
        <ele>1699.172381</ele>
        <time>2011-03-01T10:22:38Z</time>
      </trkpt>
      <trkpt lat="45.37697" lon="6.57895">
        <ele>1700.504554</ele>
        <time>2011-03-01T10:22:43Z</time>
      </trkpt>
      <trkpt lat="45.37702" lon="6.57895">
        <ele>1701.191543</ele>
        <time>2011-03-01T10:22:48Z</time>
      </trkpt>
      <trkpt lat="45.37711" lon="6.57896">
        <ele>1696.348658</ele>
        <time>2011-03-01T10:22:53Z</time>
      </trkpt>
      <trkpt lat="45.37717" lon="6.57901">
        <ele>1671.126788</ele>
        <time>2011-03-01T10:22:58Z</time>
      </trkpt>
      <trkpt lat="45.37717" lon="6.57898">
        <ele>1673.784942</ele>
        <time>2011-03-01T10:23:03Z</time>
      </trkpt>
      <trkpt lat="45.37718" lon="6.57901">
        <ele>1671.140724</ele>
        <time>2011-03-01T10:23:08Z</time>
      </trkpt>
      <trkpt lat="45.3772" lon="6.57902">
        <ele>1673.356444</ele>
        <time>2011-03-01T10:23:17Z</time>
      </trkpt>
      <trkpt lat="45.37721" lon="6.57901">
        <ele>1670.470786</ele>
        <time>2011-03-01T10:24:58Z</time>
      </trkpt>
      <trkpt lat="45.37721" lon="6.579">
        <ele>1673.20942</ele>
        <time>2011-03-01T10:25:10Z</time>
      </trkpt>
      <trkpt lat="45.37721" lon="6.57898">
        <ele>1676.645864</ele>
        <time>2011-03-01T10:25:43Z</time>
      </trkpt>
      <trkpt lat="45.37724" lon="6.57897">
        <ele>1677.305004</ele>
        <time>2011-03-01T10:25:51Z</time>
      </trkpt>
      <trkpt lat="45.37726" lon="6.57892">
        <ele>1677.708771</ele>
        <time>2011-03-01T10:25:56Z</time>
      </trkpt>
      <trkpt lat="45.37731" lon="6.57885">
        <ele>1677.979461</ele>
        <time>2011-03-01T10:26:01Z</time>
      </trkpt>
      <trkpt lat="45.37737" lon="6.57879">
        <ele>1679.754136</ele>
        <time>2011-03-01T10:26:06Z</time>
      </trkpt>
      <trkpt lat="45.37744" lon="6.57877">
        <ele>1678.253329</ele>
        <time>2011-03-01T10:26:11Z</time>
      </trkpt>
      <trkpt lat="45.37751" lon="6.57877">
        <ele>1679.666066</ele>
        <time>2011-03-01T10:26:16Z</time>
      </trkpt>
      <trkpt lat="45.37758" lon="6.57873">
        <ele>1676.594768</ele>
        <time>2011-03-01T10:26:21Z</time>
      </trkpt>
      <trkpt lat="45.37764" lon="6.57871">
        <ele>1674.382236</ele>
        <time>2011-03-01T10:26:26Z</time>
      </trkpt>
      <trkpt lat="45.3777" lon="6.57869">
        <ele>1674.291022</ele>
        <time>2011-03-01T10:26:31Z</time>
      </trkpt>
      <trkpt lat="45.37778" lon="6.57866">
        <ele>1679.059766</ele>
        <time>2011-03-01T10:26:36Z</time>
      </trkpt>
      <trkpt lat="45.37783" lon="6.57864">
        <ele>1676.847258</ele>
        <time>2011-03-01T10:26:41Z</time>
      </trkpt>
      <trkpt lat="45.37791" lon="6.57862">
        <ele>1676.770022</ele>
        <time>2011-03-01T10:26:46Z</time>
      </trkpt>
      <trkpt lat="45.37796" lon="6.57859">
        <ele>1676.584415</ele>
        <time>2011-03-01T10:26:51Z</time>
      </trkpt>
      <trkpt lat="45.37801" lon="6.57856">
        <ele>1672.867942</ele>
        <time>2011-03-01T10:26:56Z</time>
      </trkpt>
      <trkpt lat="45.37808" lon="6.57854">
        <ele>1669.877189</ele>
        <time>2011-03-01T10:27:01Z</time>
      </trkpt>
      <trkpt lat="45.37812" lon="6.57853">
        <ele>1666.321675</ele>
        <time>2011-03-01T10:27:06Z</time>
      </trkpt>
      <trkpt lat="45.3782" lon="6.57852">
        <ele>1663.425369</ele>
        <time>2011-03-01T10:27:11Z</time>
      </trkpt>
      <trkpt lat="45.37825" lon="6.57848">
        <ele>1667.468467</ele>
        <time>2011-03-01T10:27:16Z</time>
      </trkpt>
      <trkpt lat="45.37832" lon="6.57846">
        <ele>1668.786891</ele>
        <time>2011-03-01T10:27:21Z</time>
      </trkpt>
      <trkpt lat="45.37836" lon="6.57842">
        <ele>1667.097337</ele>
        <time>2011-03-01T10:27:26Z</time>
      </trkpt>
      <trkpt lat="45.37842" lon="6.5784">
        <ele>1668.415776</ele>
        <time>2011-03-01T10:27:31Z</time>
      </trkpt>
      <trkpt lat="45.37847" lon="6.57839">
        <ele>1666.26985</ele>
        <time>2011-03-01T10:27:36Z</time>
      </trkpt>
      <trkpt lat="45.37851" lon="6.57837">
        <ele>1667.560367</ele>
        <time>2011-03-01T10:27:41Z</time>
      </trkpt>
      <trkpt lat="45.37856" lon="6.57837">
        <ele>1671.844913</ele>
        <time>2011-03-01T10:27:46Z</time>
      </trkpt>
      <trkpt lat="45.37862" lon="6.57836">
        <ele>1674.653406</ele>
        <time>2011-03-01T10:27:51Z</time>
      </trkpt>
      <trkpt lat="45.3787" lon="6.57833">
        <ele>1673.086266</ele>
        <time>2011-03-01T10:27:56Z</time>
      </trkpt>
      <trkpt lat="45.37876" lon="6.57832">
        <ele>1669.46431</ele>
        <time>2011-03-01T10:28:01Z</time>
      </trkpt>
      <trkpt lat="45.37881" lon="6.57825">
        <ele>1676.863441</ele>
        <time>2011-03-01T10:28:06Z</time>
      </trkpt>
      <trkpt lat="45.37886" lon="6.57823">
        <ele>1679.577521</ele>
        <time>2011-03-01T10:28:11Z</time>
      </trkpt>
      <trkpt lat="45.37891" lon="6.57819">
        <ele>1679.311555</ele>
        <time>2011-03-01T10:28:16Z</time>
      </trkpt>
      <trkpt lat="45.37897" lon="6.57815">
        <ele>1679.126064</ele>
        <time>2011-03-01T10:28:21Z</time>
      </trkpt>
      <trkpt lat="45.37903" lon="6.57809">
        <ele>1677.303601</ele>
        <time>2011-03-01T10:28:26Z</time>
      </trkpt>
      <trkpt lat="45.37909" lon="6.57804">
        <ele>1677.749429</ele>
        <time>2011-03-01T10:28:31Z</time>
      </trkpt>
      <trkpt lat="45.37914" lon="6.57798">
        <ele>1677.389048</ele>
        <time>2011-03-01T10:28:36Z</time>
      </trkpt>
      <trkpt lat="45.37916" lon="6.57793">
        <ele>1677.095154</ele>
        <time>2011-03-01T10:28:41Z</time>
      </trkpt>
      <trkpt lat="45.37921" lon="6.57788">
        <ele>1676.734785</ele>
        <time>2011-03-01T10:28:46Z</time>
      </trkpt>
      <trkpt lat="45.37925" lon="6.57781">
        <ele>1674.186614</ele>
        <time>2011-03-01T10:28:51Z</time>
      </trkpt>
      <trkpt lat="45.37933" lon="6.57772">
        <ele>1671.505502</ele>
        <time>2011-03-01T10:28:56Z</time>
      </trkpt>
      <trkpt lat="45.37936" lon="6.57769">
        <ele>1671.372554</ele>
        <time>2011-03-01T10:29:01Z</time>
      </trkpt>
      <trkpt lat="45.37941" lon="6.57762">
        <ele>1669.536183</ele>
        <time>2011-03-01T10:29:06Z</time>
      </trkpt>
      <trkpt lat="45.37943" lon="6.57755">
        <ele>1669.067413</ele>
        <time>2011-03-01T10:29:11Z</time>
      </trkpt>
      <trkpt lat="45.37946" lon="6.57749">
        <ele>1667.995313</ele>
        <time>2011-03-01T10:29:16Z</time>
      </trkpt>
      <trkpt lat="45.37952" lon="6.57738">
        <ele>1666.615378</ele>
        <time>2011-03-01T10:29:21Z</time>
      </trkpt>
      <trkpt lat="45.37952" lon="6.57731">
        <ele>1666.132638</ele>
        <time>2011-03-01T10:29:26Z</time>
      </trkpt>
      <trkpt lat="45.37954" lon="6.57722">
        <ele>1666.295214</ele>
        <time>2011-03-01T10:29:31Z</time>
      </trkpt>
      <trkpt lat="45.37959" lon="6.57714">
        <ele>1664.364448</ele>
        <time>2011-03-01T10:29:36Z</time>
      </trkpt>
      <trkpt lat="45.37962" lon="6.57709">
        <ele>1666.191954</ele>
        <time>2011-03-01T10:29:41Z</time>
      </trkpt>
      <trkpt lat="45.37962" lon="6.57702">
        <ele>1665.789688</ele>
        <time>2011-03-01T10:29:46Z</time>
      </trkpt>
      <trkpt lat="45.3796" lon="6.57695">
        <ele>1663.869429</ele>
        <time>2011-03-01T10:29:51Z</time>
      </trkpt>
      <trkpt lat="45.37963" lon="6.57687">
        <ele>1662.005148</ele>
        <time>2011-03-01T10:29:56Z</time>
      </trkpt>
      <trkpt lat="45.37964" lon="6.57684">
        <ele>1657.535117</ele>
        <time>2011-03-01T10:30:01Z</time>
      </trkpt>
      <trkpt lat="45.37963" lon="6.57679">
        <ele>1657.9111</ele>
        <time>2011-03-01T10:30:06Z</time>
      </trkpt>
      <trkpt lat="45.37966" lon="6.57672">
        <ele>1656.744613</ele>
        <time>2011-03-01T10:30:11Z</time>
      </trkpt>
      <trkpt lat="45.37966" lon="6.57665">
        <ele>1657.751931</ele>
        <time>2011-03-01T10:30:16Z</time>
      </trkpt>
      <trkpt lat="45.37968" lon="6.57658">
        <ele>1657.283239</ele>
        <time>2011-03-01T10:30:21Z</time>
      </trkpt>
      <trkpt lat="45.37969" lon="6.5765">
        <ele>1658.224112</ele>
        <time>2011-03-01T10:30:26Z</time>
      </trkpt>
      <trkpt lat="45.37972" lon="6.57645">
        <ele>1657.930318</ele>
        <time>2011-03-01T10:30:31Z</time>
      </trkpt>
      <trkpt lat="45.37976" lon="6.57631">
        <ele>1659.892536</ele>
        <time>2011-03-01T10:30:36Z</time>
      </trkpt>
      <trkpt lat="45.37975" lon="6.57627">
        <ele>1658.939428</ele>
        <time>2011-03-01T10:30:46Z</time>
      </trkpt>
      <trkpt lat="45.37979" lon="6.57619">
        <ele>1657.706537</ele>
        <time>2011-03-01T10:30:51Z</time>
      </trkpt>
      <trkpt lat="45.37981" lon="6.57609">
        <ele>1654.969656</ele>
        <time>2011-03-01T10:30:56Z</time>
      </trkpt>
      <trkpt lat="45.37983" lon="6.57601">
        <ele>1654.420569</ele>
        <time>2011-03-01T10:31:01Z</time>
      </trkpt>
      <trkpt lat="45.37986" lon="6.57592">
        <ele>1653.885487</ele>
        <time>2011-03-01T10:31:06Z</time>
      </trkpt>
      <trkpt lat="45.3799" lon="6.57589">
        <ele>1652.974385</ele>
        <time>2011-03-01T10:31:11Z</time>
      </trkpt>
      <trkpt lat="45.37993" lon="6.57579">
        <ele>1648.841976</ele>
        <time>2011-03-01T10:31:16Z</time>
      </trkpt>
      <trkpt lat="45.37995" lon="6.57577">
        <ele>1649.406882</ele>
        <time>2011-03-01T10:31:22Z</time>
      </trkpt>
      <trkpt lat="45.37999" lon="6.57572">
        <ele>1649.127135</ele>
        <time>2011-03-01T10:31:27Z</time>
      </trkpt>
      <trkpt lat="45.38004" lon="6.57569">
        <ele>1648.23005</ele>
        <time>2011-03-01T10:31:32Z</time>
      </trkpt>
      <trkpt lat="45.38011" lon="6.57553">
        <ele>1646.542626</ele>
        <time>2011-03-01T10:31:37Z</time>
      </trkpt>
      <trkpt lat="45.38017" lon="6.5755">
        <ele>1644.249999</ele>
        <time>2011-03-01T10:31:42Z</time>
      </trkpt>
      <trkpt lat="45.3802" lon="6.57544">
        <ele>1643.178066</ele>
        <time>2011-03-01T10:31:47Z</time>
      </trkpt>
      <trkpt lat="45.38025" lon="6.57539">
        <ele>1640.710582</ele>
        <time>2011-03-01T10:31:52Z</time>
      </trkpt>
      <trkpt lat="45.38031" lon="6.57532">
        <ele>1640.284021</ele>
        <time>2011-03-01T10:31:57Z</time>
      </trkpt>
      <trkpt lat="45.38035" lon="6.57527">
        <ele>1637.896984</ele>
        <time>2011-03-01T10:32:02Z</time>
      </trkpt>
      <trkpt lat="45.38039" lon="6.5752">
        <ele>1638.154208</ele>
        <time>2011-03-01T10:32:07Z</time>
      </trkpt>
      <trkpt lat="45.38042" lon="6.57514">
        <ele>1634.960959</ele>
        <time>2011-03-01T10:32:12Z</time>
      </trkpt>
      <trkpt lat="45.38045" lon="6.57506">
        <ele>1630.197296</ele>
        <time>2011-03-01T10:32:17Z</time>
      </trkpt>
      <trkpt lat="45.38049" lon="6.57497">
        <ele>1628.884127</ele>
        <time>2011-03-01T10:32:22Z</time>
      </trkpt>
      <trkpt lat="45.38051" lon="6.57494">
        <ele>1630.16086</ele>
        <time>2011-03-01T10:32:28Z</time>
      </trkpt>
      <trkpt lat="45.38056" lon="6.57486">
        <ele>1631.761269</ele>
        <time>2011-03-01T10:32:33Z</time>
      </trkpt>
      <trkpt lat="45.38061" lon="6.57478">
        <ele>1632.032552</ele>
        <time>2011-03-01T10:32:38Z</time>
      </trkpt>
      <trkpt lat="45.38066" lon="6.57475">
        <ele>1631.84734</ele>
        <time>2011-03-01T10:32:43Z</time>
      </trkpt>
      <trkpt lat="45.3807" lon="6.57472">
        <ele>1630.936329</ele>
        <time>2011-03-01T10:32:48Z</time>
      </trkpt>
      <trkpt lat="45.38077" lon="6.57473">
        <ele>1626.079955</ele>
        <time>2011-03-01T10:32:53Z</time>
      </trkpt>
      <trkpt lat="45.38083" lon="6.57473">
        <ele>1623.250501</ele>
        <time>2011-03-01T10:32:58Z</time>
      </trkpt>
      <trkpt lat="45.38087" lon="6.57471">
        <ele>1621.722153</ele>
        <time>2011-03-01T10:33:03Z</time>
      </trkpt>
      <trkpt lat="45.38092" lon="6.57468">
        <ele>1620.127408</ele>
        <time>2011-03-01T10:33:08Z</time>
      </trkpt>
      <trkpt lat="45.38097" lon="6.57462">
        <ele>1619.767366</ele>
        <time>2011-03-01T10:33:13Z</time>
      </trkpt>
      <trkpt lat="45.38099" lon="6.5746">
        <ele>1619.634569</ele>
        <time>2011-03-01T10:33:21Z</time>
      </trkpt>
      <trkpt lat="45.38104" lon="6.57452">
        <ele>1620.603679</ele>
        <time>2011-03-01T10:33:26Z</time>
      </trkpt>
      <trkpt lat="45.38109" lon="6.57447">
        <ele>1618.848117</ele>
        <time>2011-03-01T10:33:31Z</time>
      </trkpt>
      <trkpt lat="45.38115" lon="6.57445">
        <ele>1615.22649</ele>
        <time>2011-03-01T10:33:36Z</time>
      </trkpt>
      <trkpt lat="45.38119" lon="6.57443">
        <ele>1615.107735</ele>
        <time>2011-03-01T10:33:41Z</time>
      </trkpt>
      <trkpt lat="45.38123" lon="6.57442">
        <ele>1615.781197</ele>
        <time>2011-03-01T10:33:46Z</time>
      </trkpt>
      <trkpt lat="45.38128" lon="6.57432">
        <ele>1618.710864</ele>
        <time>2011-03-01T10:33:51Z</time>
      </trkpt>
      <trkpt lat="45.38133" lon="6.57427">
        <ele>1617.653104</ele>
        <time>2011-03-01T10:33:56Z</time>
      </trkpt>
      <trkpt lat="45.38138" lon="6.57419">
        <ele>1617.9245</ele>
        <time>2011-03-01T10:34:01Z</time>
      </trkpt>
      <trkpt lat="45.38144" lon="6.57411">
        <ele>1618.827289</ele>
        <time>2011-03-01T10:34:06Z</time>
      </trkpt>
      <trkpt lat="45.38147" lon="6.57406">
        <ele>1619.245499</ele>
        <time>2011-03-01T10:34:11Z</time>
      </trkpt>
      <trkpt lat="45.38154" lon="6.57403">
        <ele>1621.893561</ele>
        <time>2011-03-01T10:34:16Z</time>
      </trkpt>
      <trkpt lat="45.38159" lon="6.57401">
        <ele>1622.500681</ele>
        <time>2011-03-01T10:34:21Z</time>
      </trkpt>
      <trkpt lat="45.38167" lon="6.57401">
        <ele>1617.564006</ele>
        <time>2011-03-01T10:34:26Z</time>
      </trkpt>
      <trkpt lat="45.38174" lon="6.57403">
        <ele>1614.909533</ele>
        <time>2011-03-01T10:34:31Z</time>
      </trkpt>
      <trkpt lat="45.38181" lon="6.57404">
        <ele>1615.691545</ele>
        <time>2011-03-01T10:34:36Z</time>
      </trkpt>
      <trkpt lat="45.38188" lon="6.57409">
        <ele>1613.895681</ele>
        <time>2011-03-01T10:34:41Z</time>
      </trkpt>
      <trkpt lat="45.38194" lon="6.57408">
        <ele>1613.173689</ele>
        <time>2011-03-01T10:34:46Z</time>
      </trkpt>
      <trkpt lat="45.38201" lon="6.57407">
        <ele>1598.921096</ele>
        <time>2011-03-01T10:34:51Z</time>
      </trkpt>
      <trkpt lat="45.38205" lon="6.57404">
        <ele>1602.319299</ele>
        <time>2011-03-01T10:34:56Z</time>
      </trkpt>
      <trkpt lat="45.38206" lon="6.57402">
        <ele>1604.279843</ele>
        <time>2011-03-01T10:35:02Z</time>
      </trkpt>
      <trkpt lat="45.3821" lon="6.57398">
        <ele>1606.202124</ele>
        <time>2011-03-01T10:35:07Z</time>
      </trkpt>
      <trkpt lat="45.38215" lon="6.57394">
        <ele>1611.655344</ele>
        <time>2011-03-01T10:35:12Z</time>
      </trkpt>
      <trkpt lat="45.38222" lon="6.57385">
        <ele>1614.599198</ele>
        <time>2011-03-01T10:35:17Z</time>
      </trkpt>
      <trkpt lat="45.38229" lon="6.57377">
        <ele>1617.006133</ele>
        <time>2011-03-01T10:35:22Z</time>
      </trkpt>
      <trkpt lat="45.38233" lon="6.57371">
        <ele>1619.46538</ele>
        <time>2011-03-01T10:35:27Z</time>
      </trkpt>
      <trkpt lat="45.38237" lon="6.57366">
        <ele>1621.307287</ele>
        <time>2011-03-01T10:35:32Z</time>
      </trkpt>
      <trkpt lat="45.38245" lon="6.57353">
        <ele>1624.024034</ele>
        <time>2011-03-01T10:35:37Z</time>
      </trkpt>
      <trkpt lat="45.3825" lon="6.57343">
        <ele>1623.422965</ele>
        <time>2011-03-01T10:35:42Z</time>
      </trkpt>
      <trkpt lat="45.38257" lon="6.57341">
        <ele>1624.044265</ele>
        <time>2011-03-01T10:35:47Z</time>
      </trkpt>
      <trkpt lat="45.38263" lon="6.5734">
        <ele>1622.544199</ele>
        <time>2011-03-01T10:35:52Z</time>
      </trkpt>
      <trkpt lat="45.3827" lon="6.57338">
        <ele>1618.936826</ele>
        <time>2011-03-01T10:35:57Z</time>
      </trkpt>
      <trkpt lat="45.38274" lon="6.57336">
        <ele>1617.408647</ele>
        <time>2011-03-01T10:36:02Z</time>
      </trkpt>
      <trkpt lat="45.38277" lon="6.57334">
        <ele>1617.27597</ele>
        <time>2011-03-01T10:36:07Z</time>
      </trkpt>
      <trkpt lat="45.38284" lon="6.57329">
        <ele>1616.246537</ele>
        <time>2011-03-01T10:36:12Z</time>
      </trkpt>
      <trkpt lat="45.38286" lon="6.57322">
        <ele>1617.268158</ele>
        <time>2011-03-01T10:36:17Z</time>
      </trkpt>
      <trkpt lat="45.38292" lon="6.57315">
        <ele>1617.553839</ele>
        <time>2011-03-01T10:36:22Z</time>
      </trkpt>
      <trkpt lat="45.38301" lon="6.57311">
        <ele>1616.618908</ele>
        <time>2011-03-01T10:36:27Z</time>
      </trkpt>
      <trkpt lat="45.38308" lon="6.57306">
        <ele>1615.589521</ele>
        <time>2011-03-01T10:36:32Z</time>
      </trkpt>
      <trkpt lat="45.38315" lon="6.57302">
        <ele>1612.519162</ele>
        <time>2011-03-01T10:36:37Z</time>
      </trkpt>
      <trkpt lat="45.38319" lon="6.57299">
        <ele>1608.803315</ele>
        <time>2011-03-01T10:36:42Z</time>
      </trkpt>
      <trkpt lat="45.38325" lon="6.57296">
        <ele>1604.38973</ele>
        <time>2011-03-01T10:36:47Z</time>
      </trkpt>
      <trkpt lat="45.3833" lon="6.57293">
        <ele>1601.385716</ele>
        <time>2011-03-01T10:36:52Z</time>
      </trkpt>
      <trkpt lat="45.38331" lon="6.57288">
        <ele>1603.185513</ele>
        <time>2011-03-01T10:36:57Z</time>
      </trkpt>
      <trkpt lat="45.38336" lon="6.57284">
        <ele>1601.510675</ele>
        <time>2011-03-01T10:37:02Z</time>
      </trkpt>
      <trkpt lat="45.3834" lon="6.57275">
        <ele>1600.990144</ele>
        <time>2011-03-01T10:37:07Z</time>
      </trkpt>
      <trkpt lat="45.38348" lon="6.57274">
        <ele>1599.504275</ele>
        <time>2011-03-01T10:37:12Z</time>
      </trkpt>
      <trkpt lat="45.38355" lon="6.57267">
        <ele>1597.682757</ele>
        <time>2011-03-01T10:37:17Z</time>
      </trkpt>
      <trkpt lat="45.3836" lon="6.57262">
        <ele>1598.827084</ele>
        <time>2011-03-01T10:37:22Z</time>
      </trkpt>
      <trkpt lat="45.38364" lon="6.57252">
        <ele>1598.923937</ele>
        <time>2011-03-01T10:37:27Z</time>
      </trkpt>
      <trkpt lat="45.3837" lon="6.57245">
        <ele>1598.497932</ele>
        <time>2011-03-01T10:37:32Z</time>
      </trkpt>
      <trkpt lat="45.38378" lon="6.57243">
        <ele>1596.233983</ele>
        <time>2011-03-01T10:37:37Z</time>
      </trkpt>
      <trkpt lat="45.38383" lon="6.57237">
        <ele>1595.176561</ele>
        <time>2011-03-01T10:37:42Z</time>
      </trkpt>
      <trkpt lat="45.38386" lon="6.57239">
        <ele>1594.587395</ele>
        <time>2011-03-01T10:37:47Z</time>
      </trkpt>
      <trkpt lat="45.3839" lon="6.57235">
        <ele>1592.978933</ele>
        <time>2011-03-01T10:37:52Z</time>
      </trkpt>
      <trkpt lat="45.38394" lon="6.57232">
        <ele>1591.370476</ele>
        <time>2011-03-01T10:37:57Z</time>
      </trkpt>
      <trkpt lat="45.38397" lon="6.57226">
        <ele>1590.996718</ele>
        <time>2011-03-01T10:38:02Z</time>
      </trkpt>
      <trkpt lat="45.38406" lon="6.57222">
        <ele>1589.36426</ele>
        <time>2011-03-01T10:38:07Z</time>
      </trkpt>
      <trkpt lat="45.38411" lon="6.57223">
        <ele>1585.889682</ele>
        <time>2011-03-01T10:38:12Z</time>
      </trkpt>
      <trkpt lat="45.38414" lon="6.57222">
        <ele>1585.851586</ele>
        <time>2011-03-01T10:38:17Z</time>
      </trkpt>
      <trkpt lat="45.38419" lon="6.5721">
        <ele>1583.680444</ele>
        <time>2011-03-01T10:38:22Z</time>
      </trkpt>
      <trkpt lat="45.38423" lon="6.57201">
        <ele>1580.260524</ele>
        <time>2011-03-01T10:38:27Z</time>
      </trkpt>
      <trkpt lat="45.38431" lon="6.57194">
        <ele>1577.741419</ele>
        <time>2011-03-01T10:38:32Z</time>
      </trkpt>
      <trkpt lat="45.38431" lon="6.5719">
        <ele>1577.500268</ele>
        <time>2011-03-01T10:38:37Z</time>
      </trkpt>
      <trkpt lat="45.38433" lon="6.57187">
        <ele>1577.273219</ele>
        <time>2011-03-01T10:38:42Z</time>
      </trkpt>
      <trkpt lat="45.38436" lon="6.57185">
        <ele>1578.564325</ele>
        <time>2011-03-01T10:38:47Z</time>
      </trkpt>
      <trkpt lat="45.38442" lon="6.57181">
        <ele>1577.681859</ele>
        <time>2011-03-01T10:38:52Z</time>
      </trkpt>
      <trkpt lat="45.38451" lon="6.57177">
        <ele>1579.566362</ele>
        <time>2011-03-01T10:38:57Z</time>
      </trkpt>
      <trkpt lat="45.38457" lon="6.5717">
        <ele>1578.442771</ele>
        <time>2011-03-01T10:39:02Z</time>
      </trkpt>
      <trkpt lat="45.38464" lon="6.57167">
        <ele>1578.27217</ele>
        <time>2011-03-01T10:39:07Z</time>
      </trkpt>
      <trkpt lat="45.38468" lon="6.57164">
        <ele>1574.556496</ele>
        <time>2011-03-01T10:39:12Z</time>
      </trkpt>
      <trkpt lat="45.38471" lon="6.57163">
        <ele>1573.094771</ele>
        <time>2011-03-01T10:39:17Z</time>
      </trkpt>
      <trkpt lat="45.38472" lon="6.5716">
        <ele>1572.867743</ele>
        <time>2011-03-01T10:39:27Z</time>
      </trkpt>
      <trkpt lat="45.3848" lon="6.5715">
        <ele>1574.416678</ele>
        <time>2011-03-01T10:39:32Z</time>
      </trkpt>
      <trkpt lat="45.38484" lon="6.57144">
        <ele>1572.647563</ele>
        <time>2011-03-01T10:39:37Z</time>
      </trkpt>
      <trkpt lat="45.38489" lon="6.5714">
        <ele>1573.080238</ele>
        <time>2011-03-01T10:39:42Z</time>
      </trkpt>
      <trkpt lat="45.38496" lon="6.57134">
        <ele>1570.641642</ele>
        <time>2011-03-01T10:39:47Z</time>
      </trkpt>
      <trkpt lat="45.38499" lon="6.57132">
        <ele>1570.509124</ele>
        <time>2011-03-01T10:39:52Z</time>
      </trkpt>
      <trkpt lat="45.38504" lon="6.57124">
        <ele>1571.412536</ele>
        <time>2011-03-01T10:39:57Z</time>
      </trkpt>
      <trkpt lat="45.3851" lon="6.57121">
        <ele>1570.530166</ele>
        <time>2011-03-01T10:40:02Z</time>
      </trkpt>
      <trkpt lat="45.38515" lon="6.57116">
        <ele>1569.553309</ele>
        <time>2011-03-01T10:40:07Z</time>
      </trkpt>
      <trkpt lat="45.38522" lon="6.57115">
        <ele>1568.053603</ele>
        <time>2011-03-01T10:40:12Z</time>
      </trkpt>
      <trkpt lat="45.38527" lon="6.57115">
        <ele>1568.110096</ele>
        <time>2011-03-01T10:40:17Z</time>
      </trkpt>
      <trkpt lat="45.38533" lon="6.57115">
        <ele>1566.690778</ele>
        <time>2011-03-01T10:40:22Z</time>
      </trkpt>
      <trkpt lat="45.38538" lon="6.57112">
        <ele>1565.096596</ele>
        <time>2011-03-01T10:40:27Z</time>
      </trkpt>
      <trkpt lat="45.38543" lon="6.57107">
        <ele>1564.119769</ele>
        <time>2011-03-01T10:40:32Z</time>
      </trkpt>
      <trkpt lat="45.38548" lon="6.57106">
        <ele>1564.09591</ele>
        <time>2011-03-01T10:40:37Z</time>
      </trkpt>
      <trkpt lat="45.38557" lon="6.57105">
        <ele>1566.141363</ele>
        <time>2011-03-01T10:40:42Z</time>
      </trkpt>
      <trkpt lat="45.38561" lon="6.571">
        <ele>1567.27184</ele>
        <time>2011-03-01T10:40:47Z</time>
      </trkpt>
      <trkpt lat="45.38567" lon="6.57097">
        <ele>1566.389541</ele>
        <time>2011-03-01T10:40:52Z</time>
      </trkpt>
      <trkpt lat="45.38574" lon="6.57096">
        <ele>1567.091692</ele>
        <time>2011-03-01T10:40:57Z</time>
      </trkpt>
      <trkpt lat="45.3858" lon="6.57096">
        <ele>1560.034165</ele>
        <time>2011-03-01T10:41:02Z</time>
      </trkpt>
      <trkpt lat="45.38584" lon="6.57095">
        <ele>1555.687134</ele>
        <time>2011-03-01T10:41:07Z</time>
      </trkpt>
      <trkpt lat="45.38591" lon="6.57093">
        <ele>1554.187519</ele>
        <time>2011-03-01T10:41:12Z</time>
      </trkpt>
      <trkpt lat="45.38596" lon="6.57092">
        <ele>1551.264204</ele>
        <time>2011-03-01T10:41:17Z</time>
      </trkpt>
      <trkpt lat="45.386" lon="6.57086">
        <ele>1550.904782</ele>
        <time>2011-03-01T10:41:22Z</time>
      </trkpt>
      <trkpt lat="45.38606" lon="6.57076">
        <ele>1551.030262</ele>
        <time>2011-03-01T10:41:27Z</time>
      </trkpt>
      <trkpt lat="45.38609" lon="6.57067">
        <ele>1550.495981</ele>
        <time>2011-03-01T10:41:32Z</time>
      </trkpt>
      <trkpt lat="45.38615" lon="6.57059">
        <ele>1549.989998</ele>
        <time>2011-03-01T10:41:37Z</time>
      </trkpt>
      <trkpt lat="45.3862" lon="6.57056">
        <ele>1549.093628</ele>
        <time>2011-03-01T10:41:42Z</time>
      </trkpt>
      <trkpt lat="45.38624" lon="6.57057">
        <ele>1548.438356</ele>
        <time>2011-03-01T10:41:47Z</time>
      </trkpt>
      <trkpt lat="45.38629" lon="6.57053">
        <ele>1547.541995</ele>
        <time>2011-03-01T10:41:52Z</time>
      </trkpt>
      <trkpt lat="45.38634" lon="6.57051">
        <ele>1548.847429</ele>
        <time>2011-03-01T10:41:57Z</time>
      </trkpt>
      <trkpt lat="45.3864" lon="6.57048">
        <ele>1548.677088</ele>
        <time>2011-03-01T10:42:02Z</time>
      </trkpt>
      <trkpt lat="45.38645" lon="6.57043">
        <ele>1546.210451</ele>
        <time>2011-03-01T10:42:07Z</time>
      </trkpt>
      <trkpt lat="45.38648" lon="6.57039">
        <ele>1545.997668</ele>
        <time>2011-03-01T10:42:12Z</time>
      </trkpt>
      <trkpt lat="45.3865" lon="6.57035">
        <ele>1547.180303</ele>
        <time>2011-03-01T10:42:17Z</time>
      </trkpt>
      <trkpt lat="45.38655" lon="6.57029">
        <ele>1549.654247</ele>
        <time>2011-03-01T10:42:22Z</time>
      </trkpt>
      <trkpt lat="45.38661" lon="6.57028">
        <ele>1555.282934</ele>
        <time>2011-03-01T10:42:27Z</time>
      </trkpt>
      <trkpt lat="45.38667" lon="6.57022">
        <ele>1556.347326</ele>
        <time>2011-03-01T10:42:32Z</time>
      </trkpt>
      <trkpt lat="45.38675" lon="6.57018">
        <ele>1544.753929</ele>
        <time>2011-03-01T10:42:37Z</time>
      </trkpt>
      <trkpt lat="45.38679" lon="6.57012">
        <ele>1541.575475</ele>
        <time>2011-03-01T10:42:42Z</time>
      </trkpt>
      <trkpt lat="45.38681" lon="6.57011">
        <ele>1543.63071</ele>
        <time>2011-03-01T10:42:48Z</time>
      </trkpt>
      <trkpt lat="45.38684" lon="6.57007">
        <ele>1544.129821</ele>
        <time>2011-03-01T10:42:53Z</time>
      </trkpt>
      <trkpt lat="45.38691" lon="6.56998">
        <ele>1541.436339</ele>
        <time>2011-03-01T10:42:58Z</time>
      </trkpt>
      <trkpt lat="45.38694" lon="6.56994">
        <ele>1539.035967</ele>
        <time>2011-03-01T10:43:03Z</time>
      </trkpt>
      <trkpt lat="45.38696" lon="6.56987">
        <ele>1534.339291</ele>
        <time>2011-03-01T10:43:08Z</time>
      </trkpt>
      <trkpt lat="45.387" lon="6.56978">
        <ele>1533.107435</ele>
        <time>2011-03-01T10:43:13Z</time>
      </trkpt>
      <trkpt lat="45.38703" lon="6.56966">
        <ele>1528.815391</ele>
        <time>2011-03-01T10:43:18Z</time>
      </trkpt>
      <trkpt lat="45.38707" lon="6.56954">
        <ele>1535.168402</ele>
        <time>2011-03-01T10:43:23Z</time>
      </trkpt>
      <trkpt lat="45.38711" lon="6.56947">
        <ele>1540.367075</ele>
        <time>2011-03-01T10:43:28Z</time>
      </trkpt>
      <trkpt lat="45.38716" lon="6.56941">
        <ele>1535.081419</ele>
        <time>2011-03-01T10:43:33Z</time>
      </trkpt>
      <trkpt lat="45.38715" lon="6.56945">
        <ele>1535.322467</ele>
        <time>2011-03-01T10:43:41Z</time>
      </trkpt>
      <trkpt lat="45.38723" lon="6.56944">
        <ele>1522.480306</ele>
        <time>2011-03-01T10:43:46Z</time>
      </trkpt>
      <trkpt lat="45.38733" lon="6.56944">
        <ele>1500.577563</ele>
        <time>2011-03-01T10:43:51Z</time>
      </trkpt>
      <trkpt lat="45.38739" lon="6.56943">
        <ele>1495.54715</ele>
        <time>2011-03-01T10:43:56Z</time>
      </trkpt>
      <trkpt lat="45.38745" lon="6.56941">
        <ele>1494.047754</ele>
        <time>2011-03-01T10:44:01Z</time>
      </trkpt>
      <trkpt lat="45.38752" lon="6.56944">
        <ele>1497.09847</ele>
        <time>2011-03-01T10:44:06Z</time>
      </trkpt>
      <trkpt lat="45.38757" lon="6.56941">
        <ele>1500.445145</ele>
        <time>2011-03-01T10:44:11Z</time>
      </trkpt>
      <trkpt lat="45.38765" lon="6.56941">
        <ele>1496.221162</ele>
        <time>2011-03-01T10:44:16Z</time>
      </trkpt>
      <trkpt lat="45.38772" lon="6.56939">
        <ele>1494.024106</ele>
        <time>2011-03-01T10:44:21Z</time>
      </trkpt>
      <trkpt lat="45.3878" lon="6.56939">
        <ele>1494.028853</ele>
        <time>2011-03-01T10:44:26Z</time>
      </trkpt>
      <trkpt lat="45.38782" lon="6.56938">
        <ele>1491.855427</ele>
        <time>2011-03-01T10:44:31Z</time>
      </trkpt>
      <trkpt lat="45.3879" lon="6.56937">
        <ele>1490.370272</ele>
        <time>2011-03-01T10:44:36Z</time>
      </trkpt>
      <trkpt lat="45.38797" lon="6.56935">
        <ele>1493.113837</ele>
        <time>2011-03-01T10:44:41Z</time>
      </trkpt>
      <trkpt lat="45.38806" lon="6.56934">
        <ele>1486.702308</ele>
        <time>2011-03-01T10:44:46Z</time>
      </trkpt>
      <trkpt lat="45.38813" lon="6.56933">
        <ele>1480.2766</ele>
        <time>2011-03-01T10:44:51Z</time>
      </trkpt>
      <trkpt lat="45.38817" lon="6.56932">
        <ele>1480.23883</ele>
        <time>2011-03-01T10:44:56Z</time>
      </trkpt>
      <trkpt lat="45.38823" lon="6.56928">
        <ele>1482.176014</ele>
        <time>2011-03-01T10:45:01Z</time>
      </trkpt>
      <trkpt lat="45.38829" lon="6.56925">
        <ele>1486.932346</ele>
        <time>2011-03-01T10:45:06Z</time>
      </trkpt>
      <trkpt lat="45.38835" lon="6.56923">
        <ele>1488.949891</ele>
        <time>2011-03-01T10:45:11Z</time>
      </trkpt>
      <trkpt lat="45.38837" lon="6.56918">
        <ele>1500.013808</ele>
        <time>2011-03-01T10:45:16Z</time>
      </trkpt>
      <trkpt lat="45.38836" lon="6.56919">
        <ele>1505.718234</ele>
        <time>2011-03-01T10:45:21Z</time>
      </trkpt>
      <trkpt lat="45.38842" lon="6.56914">
        <ele>1510.39424</ele>
        <time>2011-03-01T10:45:26Z</time>
      </trkpt>
      <trkpt lat="45.3885" lon="6.5691">
        <ele>1517.286253</ele>
        <time>2011-03-01T10:45:31Z</time>
      </trkpt>
      <trkpt lat="45.38857" lon="6.56907">
        <ele>1515.008975</ele>
        <time>2011-03-01T10:45:36Z</time>
      </trkpt>
      <trkpt lat="45.38864" lon="6.56905">
        <ele>1511.322138</ele>
        <time>2011-03-01T10:45:41Z</time>
      </trkpt>
      <trkpt lat="45.38871" lon="6.56902">
        <ele>1509.742563</ele>
        <time>2011-03-01T10:45:46Z</time>
      </trkpt>
      <trkpt lat="45.38878" lon="6.569">
        <ele>1509.667117</ele>
        <time>2011-03-01T10:45:51Z</time>
      </trkpt>
      <trkpt lat="45.38884" lon="6.56899">
        <ele>1508.945926</ele>
        <time>2011-03-01T10:45:56Z</time>
      </trkpt>
      <trkpt lat="45.3889" lon="6.56897">
        <ele>1502.425779</ele>
        <time>2011-03-01T10:46:01Z</time>
      </trkpt>
      <trkpt lat="45.38897" lon="6.56897">
        <ele>1501.718813</ele>
        <time>2011-03-01T10:46:06Z</time>
      </trkpt>
      <trkpt lat="45.38904" lon="6.56898">
        <ele>1499.682628</ele>
        <time>2011-03-01T10:46:11Z</time>
      </trkpt>
      <trkpt lat="45.38909" lon="6.56896">
        <ele>1505.297423</ele>
        <time>2011-03-01T10:46:16Z</time>
      </trkpt>
      <trkpt lat="45.38915" lon="6.56895">
        <ele>1507.395407</ele>
        <time>2011-03-01T10:46:21Z</time>
      </trkpt>
      <trkpt lat="45.38921" lon="6.56896">
        <ele>1508.876062</ele>
        <time>2011-03-01T10:46:26Z</time>
      </trkpt>
      <trkpt lat="45.38928" lon="6.56895">
        <ele>1504.557763</ele>
        <time>2011-03-01T10:46:31Z</time>
      </trkpt>
      <trkpt lat="45.38934" lon="6.56889">
        <ele>1506.334407</ele>
        <time>2011-03-01T10:46:36Z</time>
      </trkpt>
      <trkpt lat="45.38942" lon="6.56887">
        <ele>1499.130869</ele>
        <time>2011-03-01T10:46:41Z</time>
      </trkpt>
      <trkpt lat="45.38948" lon="6.56882">
        <ele>1500.2902</ele>
        <time>2011-03-01T10:46:46Z</time>
      </trkpt>
      <trkpt lat="45.38956" lon="6.5688">
        <ele>1493.784356</ele>
        <time>2011-03-01T10:46:51Z</time>
      </trkpt>
      <trkpt lat="45.38962" lon="6.56878">
        <ele>1492.285244</ele>
        <time>2011-03-01T10:46:56Z</time>
      </trkpt>
      <trkpt lat="45.38968" lon="6.56878">
        <ele>1490.154578</ele>
        <time>2011-03-01T10:47:01Z</time>
      </trkpt>
      <trkpt lat="45.38973" lon="6.56873">
        <ele>1489.890145</ele>
        <time>2011-03-01T10:47:06Z</time>
      </trkpt>
      <trkpt lat="45.38979" lon="6.56869">
        <ele>1497.465809</ele>
        <time>2011-03-01T10:47:11Z</time>
      </trkpt>
      <trkpt lat="45.38985" lon="6.56866">
        <ele>1497.99363</ele>
        <time>2011-03-01T10:47:16Z</time>
      </trkpt>
      <trkpt lat="45.38991" lon="6.56863">
        <ele>1499.931029</ele>
        <time>2011-03-01T10:47:21Z</time>
      </trkpt>
      <trkpt lat="45.38998" lon="6.56859">
        <ele>1501.170769</ele>
        <time>2011-03-01T10:47:26Z</time>
      </trkpt>
      <trkpt lat="45.39004" lon="6.56854">
        <ele>1498.718804</ele>
        <time>2011-03-01T10:47:31Z</time>
      </trkpt>
      <trkpt lat="45.39008" lon="6.56851">
        <ele>1496.413278</ele>
        <time>2011-03-01T10:47:36Z</time>
      </trkpt>
      <trkpt lat="45.39013" lon="6.56851">
        <ele>1496.470235</ele>
        <time>2011-03-01T10:47:41Z</time>
      </trkpt>
      <trkpt lat="45.39019" lon="6.56846">
        <ele>1496.125528</ele>
        <time>2011-03-01T10:47:46Z</time>
      </trkpt>
      <trkpt lat="45.39025" lon="6.56843">
        <ele>1493.83426</ele>
        <time>2011-03-01T10:47:51Z</time>
      </trkpt>
      <trkpt lat="45.3903" lon="6.56842">
        <ele>1496.630041</ele>
        <time>2011-03-01T10:47:56Z</time>
      </trkpt>
      <trkpt lat="45.39034" lon="6.56838">
        <ele>1497.841347</ele>
        <time>2011-03-01T10:48:01Z</time>
      </trkpt>
      <trkpt lat="45.39034" lon="6.56835">
        <ele>1494.781209</ele>
        <time>2011-03-01T10:48:06Z</time>
      </trkpt>
      <trkpt lat="45.39036" lon="6.56831">
        <ele>1493.856797</ele>
        <time>2011-03-01T10:48:20Z</time>
      </trkpt>
      <trkpt lat="45.39036" lon="6.56822">
        <ele>1492.582573</ele>
        <time>2011-03-01T10:48:25Z</time>
      </trkpt>
      <trkpt lat="45.39038" lon="6.56814">
        <ele>1492.03451</ele>
        <time>2011-03-01T10:48:30Z</time>
      </trkpt>
      <trkpt lat="45.3904" lon="6.5681">
        <ele>1491.110106</ele>
        <time>2011-03-01T10:48:35Z</time>
      </trkpt>
      <trkpt lat="45.39046" lon="6.56806">
        <ele>1485.919403</ele>
        <time>2011-03-01T10:48:40Z</time>
      </trkpt>
      <trkpt lat="45.39052" lon="6.56801">
        <ele>1482.755613</ele>
        <time>2011-03-01T10:48:45Z</time>
      </trkpt>
      <trkpt lat="45.39056" lon="6.56797">
        <ele>1486.786092</ele>
        <time>2011-03-01T10:48:50Z</time>
      </trkpt>
      <trkpt lat="45.39061" lon="6.56789">
        <ele>1484.159325</ele>
        <time>2011-03-01T10:48:55Z</time>
      </trkpt>
      <trkpt lat="45.39067" lon="6.56784">
        <ele>1484.606939</ele>
        <time>2011-03-01T10:49:00Z</time>
      </trkpt>
      <trkpt lat="45.39071" lon="6.5678">
        <ele>1479.402023</ele>
        <time>2011-03-01T10:49:05Z</time>
      </trkpt>
      <trkpt lat="45.39073" lon="6.56774">
        <ele>1479.014655</ele>
        <time>2011-03-01T10:49:10Z</time>
      </trkpt>
      <trkpt lat="45.39078" lon="6.56772">
        <ele>1481.730166</ele>
        <time>2011-03-01T10:49:15Z</time>
      </trkpt>
      <trkpt lat="45.39086" lon="6.5677">
        <ele>1480.245481</ele>
        <time>2011-03-01T10:49:20Z</time>
      </trkpt>
      <trkpt lat="45.39092" lon="6.56769">
        <ele>1480.156121</ele>
        <time>2011-03-01T10:49:25Z</time>
      </trkpt>
      <trkpt lat="45.39098" lon="6.56768">
        <ele>1478.025606</ele>
        <time>2011-03-01T10:49:30Z</time>
      </trkpt>
      <trkpt lat="45.39106" lon="6.56769">
        <ele>1473.882453</ele>
        <time>2011-03-01T10:49:35Z</time>
      </trkpt>
      <trkpt lat="45.39109" lon="6.56773">
        <ele>1479.092577</ele>
        <time>2011-03-01T10:49:40Z</time>
      </trkpt>
      <trkpt lat="45.39115" lon="6.56767">
        <ele>1478.762277</ele>
        <time>2011-03-01T10:49:45Z</time>
      </trkpt>
      <trkpt lat="45.39121" lon="6.56769">
        <ele>1483.84029</ele>
        <time>2011-03-01T10:49:50Z</time>
      </trkpt>
      <trkpt lat="45.39126" lon="6.56767">
        <ele>1487.253504</ele>
        <time>2011-03-01T10:49:55Z</time>
      </trkpt>
      <trkpt lat="45.39131" lon="6.56768">
        <ele>1483.081857</ele>
        <time>2011-03-01T10:50:00Z</time>
      </trkpt>
      <trkpt lat="45.39135" lon="6.56762">
        <ele>1479.206256</ele>
        <time>2011-03-01T10:50:05Z</time>
      </trkpt>
      <trkpt lat="45.39138" lon="6.56768">
        <ele>1477.448859</ele>
        <time>2011-03-01T10:50:10Z</time>
      </trkpt>
      <trkpt lat="45.39145" lon="6.56766">
        <ele>1474.540422</ele>
        <time>2011-03-01T10:50:15Z</time>
      </trkpt>
      <trkpt lat="45.39148" lon="6.56764">
        <ele>1475.817893</ele>
        <time>2011-03-01T10:50:20Z</time>
      </trkpt>
      <trkpt lat="45.39147" lon="6.56767">
        <ele>1481.697144</ele>
        <time>2011-03-01T10:50:25Z</time>
      </trkpt>
      <trkpt lat="45.39148" lon="6.56769">
        <ele>1486.100775</ele>
        <time>2011-03-01T10:50:30Z</time>
      </trkpt>
      <trkpt lat="45.39148" lon="6.56771">
        <ele>1490.490134</ele>
        <time>2011-03-01T10:50:35Z</time>
      </trkpt>
      <trkpt lat="45.39147" lon="6.56768">
        <ele>1493.13436</ele>
        <time>2011-03-01T10:50:43Z</time>
      </trkpt>
      <trkpt lat="45.39147" lon="6.56767">
        <ele>1495.873181</ele>
        <time>2011-03-01T10:50:49Z</time>
      </trkpt>
      <trkpt lat="45.39147" lon="6.56767">
        <ele>1491.644467</ele>
        <time>2011-03-01T10:50:54Z</time>
      </trkpt>
      <trkpt lat="45.39149" lon="6.56766">
        <ele>1488.759274</ele>
        <time>2011-03-01T10:51:03Z</time>
      </trkpt>
      <trkpt lat="45.39151" lon="6.56764">
        <ele>1487.915253</ele>
        <time>2011-03-01T10:51:18Z</time>
      </trkpt>
      <trkpt lat="45.39152" lon="6.56766">
        <ele>1483.781132</ele>
        <time>2011-03-01T10:51:23Z</time>
      </trkpt>
      <trkpt lat="45.39154" lon="6.56764">
        <ele>1484.346684</ele>
        <time>2011-03-01T10:51:32Z</time>
      </trkpt>
      <trkpt lat="45.3916" lon="6.56762">
        <ele>1483.545488</ele>
        <time>2011-03-01T10:51:37Z</time>
      </trkpt>
      <trkpt lat="45.39167" lon="6.56764">
        <ele>1485.818681</ele>
        <time>2011-03-01T10:51:42Z</time>
      </trkpt>
      <trkpt lat="45.39174" lon="6.56763">
        <ele>1484.414451</ele>
        <time>2011-03-01T10:51:47Z</time>
      </trkpt>
      <trkpt lat="45.39181" lon="6.56763">
        <ele>1485.11745</ele>
        <time>2011-03-01T10:51:52Z</time>
      </trkpt>
      <trkpt lat="45.39189" lon="6.56759">
        <ele>1482.062709</ele>
        <time>2011-03-01T10:51:57Z</time>
      </trkpt>
      <trkpt lat="45.39197" lon="6.56753">
        <ele>1476.028199</ele>
        <time>2011-03-01T10:52:02Z</time>
      </trkpt>
      <trkpt lat="45.392" lon="6.56751">
        <ele>1475.896128</ele>
        <time>2011-03-01T10:52:07Z</time>
      </trkpt>
      <trkpt lat="45.39205" lon="6.56746">
        <ele>1475.631992</ele>
        <time>2011-03-01T10:52:12Z</time>
      </trkpt>
      <trkpt lat="45.39213" lon="6.56743">
        <ele>1474.764827</ele>
        <time>2011-03-01T10:52:17Z</time>
      </trkpt>
      <trkpt lat="45.39216" lon="6.56736">
        <ele>1475.023426</ele>
        <time>2011-03-01T10:52:22Z</time>
      </trkpt>
      <trkpt lat="45.3922" lon="6.56729">
        <ele>1475.993963</ele>
        <time>2011-03-01T10:52:27Z</time>
      </trkpt>
      <trkpt lat="45.39223" lon="6.56722">
        <ele>1481.259251</ele>
        <time>2011-03-01T10:52:32Z</time>
      </trkpt>
      <trkpt lat="45.39225" lon="6.56719">
        <ele>1488.16077</ele>
        <time>2011-03-01T10:52:37Z</time>
      </trkpt>
      <trkpt lat="45.39227" lon="6.56711">
        <ele>1488.405105</ele>
        <time>2011-03-01T10:52:42Z</time>
      </trkpt>
      <trkpt lat="45.39227" lon="6.56708">
        <ele>1486.04266</ele>
        <time>2011-03-01T10:52:47Z</time>
      </trkpt>
      <trkpt lat="45.39229" lon="6.56705">
        <ele>1485.198682</ele>
        <time>2011-03-01T10:52:52Z</time>
      </trkpt>
      <trkpt lat="45.39229" lon="6.56706">
        <ele>1488.810072</ele>
        <time>2011-03-01T10:52:57Z</time>
      </trkpt>
      <trkpt lat="45.39227" lon="6.56702">
        <ele>1496.300344</ele>
        <time>2011-03-01T10:53:02Z</time>
      </trkpt>
      <trkpt lat="45.39229" lon="6.56703">
        <ele>1493.575803</ele>
        <time>2011-03-01T10:53:07Z</time>
      </trkpt>
      <trkpt lat="45.39231" lon="6.56702">
        <ele>1484.274393</ele>
        <time>2011-03-01T10:53:12Z</time>
      </trkpt>
      <trkpt lat="45.39231" lon="6.56704">
        <ele>1481.535562</ele>
        <time>2011-03-01T10:53:17Z</time>
      </trkpt>
      <trkpt lat="45.39231" lon="6.56703">
        <ele>1478.636104</ele>
        <time>2011-03-01T10:53:22Z</time>
      </trkpt>
      <trkpt lat="45.39233" lon="6.56705">
        <ele>1478.825313</ele>
        <time>2011-03-01T10:53:31Z</time>
      </trkpt>
      <trkpt lat="45.3924" lon="6.56711">
        <ele>1479.929963</ele>
        <time>2011-03-01T10:53:36Z</time>
      </trkpt>
      <trkpt lat="45.39246" lon="6.56715">
        <ele>1477.342918</ele>
        <time>2011-03-01T10:53:41Z</time>
      </trkpt>
      <trkpt lat="45.39249" lon="6.56715">
        <ele>1475.264299</ele>
        <time>2011-03-01T10:53:46Z</time>
      </trkpt>
      <trkpt lat="45.39253" lon="6.56717">
        <ele>1478.206646</ele>
        <time>2011-03-01T10:53:51Z</time>
      </trkpt>
      <trkpt lat="45.39261" lon="6.56725">
        <ele>1483.017336</ele>
        <time>2011-03-01T10:53:56Z</time>
      </trkpt>
      <trkpt lat="45.39268" lon="6.5673">
        <ele>1489.760322</ele>
        <time>2011-03-01T10:54:01Z</time>
      </trkpt>
      <trkpt lat="45.39275" lon="6.56731">
        <ele>1504.719801</ele>
        <time>2011-03-01T10:54:06Z</time>
      </trkpt>
      <trkpt lat="45.39276" lon="6.56733">
        <ele>1519.07077</ele>
        <time>2011-03-01T10:54:11Z</time>
      </trkpt>
      <trkpt lat="45.39282" lon="6.56734">
        <ele>1510.60454</ele>
        <time>2011-03-01T10:54:16Z</time>
      </trkpt>
      <trkpt lat="45.39288" lon="6.5673">
        <ele>1505.414149</ele>
        <time>2011-03-01T10:54:21Z</time>
      </trkpt>
      <trkpt lat="45.39294" lon="6.56724">
        <ele>1505.781739</ele>
        <time>2011-03-01T10:54:26Z</time>
      </trkpt>
      <trkpt lat="45.39301" lon="6.56721">
        <ele>1501.383619</ele>
        <time>2011-03-01T10:54:31Z</time>
      </trkpt>
      <trkpt lat="45.39306" lon="6.56721">
        <ele>1501.360542</ele>
        <time>2011-03-01T10:54:36Z</time>
      </trkpt>
      <trkpt lat="45.39313" lon="6.56718">
        <ele>1504.090612</ele>
        <time>2011-03-01T10:54:41Z</time>
      </trkpt>
      <trkpt lat="45.39318" lon="6.56722">
        <ele>1503.610859</ele>
        <time>2011-03-01T10:54:46Z</time>
      </trkpt>
      <trkpt lat="45.39325" lon="6.56724">
        <ele>1498.836397</ele>
        <time>2011-03-01T10:54:51Z</time>
      </trkpt>
      <trkpt lat="45.39333" lon="6.5673">
        <ele>1492.827319</ele>
        <time>2011-03-01T10:54:56Z</time>
      </trkpt>
      <trkpt lat="45.39342" lon="6.5673">
        <ele>1497.156259</ele>
        <time>2011-03-01T10:55:01Z</time>
      </trkpt>
      <trkpt lat="45.39348" lon="6.5673">
        <ele>1509.202059</ele>
        <time>2011-03-01T10:55:06Z</time>
      </trkpt>
      <trkpt lat="45.39355" lon="6.56728">
        <ele>1516.953156</ele>
        <time>2011-03-01T10:55:11Z</time>
      </trkpt>
      <trkpt lat="45.39362" lon="6.56732">
        <ele>1511.561435</ele>
        <time>2011-03-01T10:55:16Z</time>
      </trkpt>
      <trkpt lat="45.39369" lon="6.5673">
        <ele>1513.59395</ele>
        <time>2011-03-01T10:55:21Z</time>
      </trkpt>
      <trkpt lat="45.39377" lon="6.56731">
        <ele>1509.37088</ele>
        <time>2011-03-01T10:55:26Z</time>
      </trkpt>
      <trkpt lat="45.39382" lon="6.56729">
        <ele>1507.146042</ele>
        <time>2011-03-01T10:55:31Z</time>
      </trkpt>
      <trkpt lat="45.3939" lon="6.56729">
        <ele>1505.044513</ele>
        <time>2011-03-01T10:55:36Z</time>
      </trkpt>
      <trkpt lat="45.39396" lon="6.56726">
        <ele>1500.646514</ele>
        <time>2011-03-01T10:55:41Z</time>
      </trkpt>
      <trkpt lat="45.39403" lon="6.56725">
        <ele>1502.047438</ele>
        <time>2011-03-01T10:55:46Z</time>
      </trkpt>
      <trkpt lat="45.39409" lon="6.56726">
        <ele>1504.938255</ele>
        <time>2011-03-01T10:55:51Z</time>
      </trkpt>
      <trkpt lat="45.39415" lon="6.56725">
        <ele>1505.62724</ele>
        <time>2011-03-01T10:55:56Z</time>
      </trkpt>
      <trkpt lat="45.39422" lon="6.56721">
        <ele>1506.787249</ele>
        <time>2011-03-01T10:56:01Z</time>
      </trkpt>
      <trkpt lat="45.39427" lon="6.56718">
        <ele>1512.322268</ele>
        <time>2011-03-01T10:56:06Z</time>
      </trkpt>
      <trkpt lat="45.39432" lon="6.5672">
        <ele>1523.816829</ele>
        <time>2011-03-01T10:56:11Z</time>
      </trkpt>
      <trkpt lat="45.39438" lon="6.56717">
        <ele>1522.238029</ele>
        <time>2011-03-01T10:56:16Z</time>
      </trkpt>
      <trkpt lat="45.39445" lon="6.56718">
        <ele>1518.792987</ele>
        <time>2011-03-01T10:56:21Z</time>
      </trkpt>
      <trkpt lat="45.39451" lon="6.56715">
        <ele>1522.140535</ele>
        <time>2011-03-01T10:56:26Z</time>
      </trkpt>
      <trkpt lat="45.39455" lon="6.56711">
        <ele>1523.352212</ele>
        <time>2011-03-01T10:56:31Z</time>
      </trkpt>
      <trkpt lat="45.39462" lon="6.56708">
        <ele>1516.766806</ele>
        <time>2011-03-01T10:56:36Z</time>
      </trkpt>
      <trkpt lat="45.39469" lon="6.56704">
        <ele>1512.288595</ele>
        <time>2011-03-01T10:56:41Z</time>
      </trkpt>
      <trkpt lat="45.39475" lon="6.56698">
        <ele>1513.354023</ele>
        <time>2011-03-01T10:56:46Z</time>
      </trkpt>
      <trkpt lat="45.39483" lon="6.56688">
        <ele>1497.131758</ele>
        <time>2011-03-01T10:56:51Z</time>
      </trkpt>
      <trkpt lat="45.39486" lon="6.56682">
        <ele>1503.189488</ele>
        <time>2011-03-01T10:56:56Z</time>
      </trkpt>
      <trkpt lat="45.39488" lon="6.5668">
        <ele>1502.34562</ele>
        <time>2011-03-01T10:57:01Z</time>
      </trkpt>
      <trkpt lat="45.39496" lon="6.56677">
        <ele>1505.707585</ele>
        <time>2011-03-01T10:57:06Z</time>
      </trkpt>
      <trkpt lat="45.39502" lon="6.56673">
        <ele>1507.645632</ele>
        <time>2011-03-01T10:57:11Z</time>
      </trkpt>
      <trkpt lat="45.39508" lon="6.56668">
        <ele>1510.912954</ele>
        <time>2011-03-01T10:57:16Z</time>
      </trkpt>
      <trkpt lat="45.39513" lon="6.56663">
        <ele>1516.287464</ele>
        <time>2011-03-01T10:57:21Z</time>
      </trkpt>
      <trkpt lat="45.39519" lon="6.5666">
        <ele>1517.527929</ele>
        <time>2011-03-01T10:57:26Z</time>
      </trkpt>
      <trkpt lat="45.39525" lon="6.56656">
        <ele>1522.285154</ele>
        <time>2011-03-01T10:57:31Z</time>
      </trkpt>
      <trkpt lat="45.39532" lon="6.56649">
        <ele>1518.26374</ele>
        <time>2011-03-01T10:57:36Z</time>
      </trkpt>
      <trkpt lat="45.39536" lon="6.56644">
        <ele>1515.166482</ele>
        <time>2011-03-01T10:57:41Z</time>
      </trkpt>
      <trkpt lat="45.3954" lon="6.56639">
        <ele>1517.009917</ele>
        <time>2011-03-01T10:57:46Z</time>
      </trkpt>
      <trkpt lat="45.39546" lon="6.56633">
        <ele>1515.17601</ele>
        <time>2011-03-01T10:57:51Z</time>
      </trkpt>
      <trkpt lat="45.39549" lon="6.5663">
        <ele>1503.687263</ele>
        <time>2011-03-01T10:57:56Z</time>
      </trkpt>
      <trkpt lat="45.39552" lon="6.56631">
        <ele>1504.427971</ele>
        <time>2011-03-01T10:58:06Z</time>
      </trkpt>
      <trkpt lat="45.39557" lon="6.56627">
        <ele>1509.882845</ele>
        <time>2011-03-01T10:58:11Z</time>
      </trkpt>
      <trkpt lat="45.39561" lon="6.56624">
        <ele>1515.403652</ele>
        <time>2011-03-01T10:58:16Z</time>
      </trkpt>
      <trkpt lat="45.39561" lon="6.56627">
        <ele>1511.33553</ele>
        <time>2011-03-01T10:58:21Z</time>
      </trkpt>
      <trkpt lat="45.39564" lon="6.56625">
        <ele>1511.203676</ele>
        <time>2011-03-01T10:58:27Z</time>
      </trkpt>
      <trkpt lat="45.3957" lon="6.56623">
        <ele>1513.934089</ele>
        <time>2011-03-01T10:58:32Z</time>
      </trkpt>
      <trkpt lat="45.39571" lon="6.56622">
        <ele>1511.049018</ele>
        <time>2011-03-01T10:58:38Z</time>
      </trkpt>
      <trkpt lat="45.39574" lon="6.56621">
        <ele>1512.407041</ele>
        <time>2011-03-01T10:58:58Z</time>
      </trkpt>
      <trkpt lat="45.39577" lon="6.56617">
        <ele>1513.60447</ele>
        <time>2011-03-01T10:59:22Z</time>
      </trkpt>
      <trkpt lat="45.39584" lon="6.5662">
        <ele>1513.139347</ele>
        <time>2011-03-01T10:59:27Z</time>
      </trkpt>
      <trkpt lat="45.39587" lon="6.56624">
        <ele>1508.40238</ele>
        <time>2011-03-01T10:59:32Z</time>
      </trkpt>
      <trkpt lat="45.3959" lon="6.56623">
        <ele>1510.472387</ele>
        <time>2011-03-01T10:59:37Z</time>
      </trkpt>
      <trkpt lat="45.39594" lon="6.56619">
        <ele>1511.684203</ele>
        <time>2011-03-01T10:59:42Z</time>
      </trkpt>
    </trkseg>
  </trk>
</gpx>